PWSweather.com
Personal Weather Stations
Station Observations
KOHREFORM1
Reform, Ohio, Newark, OH 43055

Reform, OhioNewark, OH 43055

Lat: 40.1502, Lon: -82.2417

Elevation: 1043

Station Type: Davis Vantage Pro 2 Plus

Latest ConditionsUpdated 2:50:36 PM EST Sunday, Nov 19, 2017
Currently Today's Max Today's Min Today's Average
Temperature 37.2°F2.9°C 38.2°F3.4°C 33.7°F0.9°C 36.9°F2.7°C
Dew Point 31.3°F-0.4°C 34.2°F1.2°C 27.9°F-2.3°C 31.6°F-0.2°C
Winds 3.0 mph E4.8 kmh E 14.0 mph N22.5 kmh N - 3.7 mph 6.0 kmh
Wind Gusts 13.0 mph20.9 kmh 17.0 mph27.4 kmh - -
Humidity 79% 89% 70% 81%
Pressure 29.92 in1013.2 mb 29.92 in1013.2 mb 29.50 in999.0 mb -
Precipitation - 0.07 in1.8 mm - -
Hour Temp Dew Point Humidity Winds Wind Gusts Pressure Precip Precip Rate Daily Precip Total
02:50 PM 37.2°F2.9°C 31.3°F-0.4°C 79% 3.0 mph E4.8 kmh E 13.0 mph20.9 kmh 29.92 in1013.2 mb 0.00 in0.0 mm 0.00 in0.0 mm 0.07 in1.8 mm
02:48 PM 37.3°F2.9°C 31.4°F-0.3°C 79% 6.0 mph SW9.7 kmh SW 13.0 mph20.9 kmh 29.92 in1013.2 mb 0.00 in0.0 mm 0.00 in0.0 mm 0.07 in1.8 mm
02:46 PM 37.2°F2.9°C 31.3°F-0.4°C 79% 4.0 mph WSW6.4 kmh WSW 13.0 mph20.9 kmh 29.92 in1013.2 mb 0.00 in0.0 mm 0.00 in0.0 mm 0.07 in1.8 mm
02:44 PM 37.1°F2.8°C 31.2°F-0.4°C 79% 2.0 mph WNW3.2 kmh WNW 13.0 mph20.9 kmh 29.91 in1012.9 mb 0.00 in0.0 mm 0.00 in0.0 mm 0.07 in1.8 mm
02:42 PM 37.1°F2.8°C 31.5°F-0.3°C 80% 3.0 mph W4.8 kmh W 10.0 mph16.1 kmh 29.92 in1013.2 mb 0.00 in0.0 mm 0.00 in0.0 mm 0.07 in1.8 mm
02:40 PM 37.0°F2.8°C 31.4°F-0.3°C 80% 2.0 mph W3.2 kmh W 10.0 mph16.1 kmh 29.92 in1013.2 mb 0.00 in0.0 mm 0.00 in0.0 mm 0.07 in1.8 mm
02:38 PM 36.9°F2.7°C 31.3°F-0.4°C 80% 3.0 mph WNW4.8 kmh WNW 10.0 mph16.1 kmh 29.92 in1013.2 mb 0.00 in0.0 mm 0.00 in0.0 mm 0.07 in1.8 mm
02:36 PM 36.9°F2.7°C 31.3°F-0.4°C 80% 2.0 mph E3.2 kmh E 10.0 mph16.1 kmh 29.92 in1013.2 mb 0.00 in0.0 mm 0.00 in0.0 mm 0.07 in1.8 mm
02:34 PM 36.8°F2.7°C 31.2°F-0.4°C 80% 3.0 mph NW4.8 kmh NW 10.0 mph16.1 kmh 29.92 in1013.2 mb 0.00 in0.0 mm 0.00 in0.0 mm 0.07 in1.8 mm
02:32 PM 36.8°F2.7°C 30.9°F-0.6°C 79% 10.0 mph WSW16.1 kmh WSW 10.0 mph16.1 kmh 29.92 in1013.2 mb 0.00 in0.0 mm 0.00 in0.0 mm 0.07 in1.8 mm
02:30 PM 36.9°F2.7°C 31.0°F-0.6°C 79% 4.0 mph SW6.4 kmh SW 9.0 mph14.5 kmh 29.92 in1013.2 mb 0.00 in0.0 mm 0.00 in0.0 mm 0.07 in1.8 mm
02:28 PM 36.9°F2.7°C 31.3°F-0.4°C 80% 6.0 mph W9.7 kmh W 9.0 mph14.5 kmh 29.92 in1013.2 mb 0.00 in0.0 mm 0.00 in0.0 mm 0.07 in1.8 mm
02:26 PM 36.9°F2.7°C 31.0°F-0.6°C 79% 3.0 mph W4.8 kmh W 11.0 mph17.7 kmh 29.92 in1013.2 mb 0.00 in0.0 mm 0.00 in0.0 mm 0.07 in1.8 mm
02:24 PM 37.0°F2.8°C 31.1°F-0.5°C 79% 4.0 mph W6.4 kmh W 11.0 mph17.7 kmh 29.92 in1013.2 mb 0.00 in0.0 mm 0.00 in0.0 mm 0.07 in1.8 mm
02:22 PM 37.0°F2.8°C 31.1°F-0.5°C 79% 4.0 mph WSW6.4 kmh WSW 11.0 mph17.7 kmh 29.92 in1013.2 mb 0.00 in0.0 mm 0.00 in0.0 mm 0.07 in1.8 mm
02:20 PM 37.0°F2.8°C 31.1°F-0.5°C 79% 2.0 mph NW3.2 kmh NW 11.0 mph17.7 kmh 29.91 in1012.9 mb 0.00 in0.0 mm 0.00 in0.0 mm 0.07 in1.8 mm
02:18 PM 37.0°F2.8°C 31.1°F-0.5°C 79% 4.0 mph WNW6.4 kmh WNW 11.0 mph17.7 kmh 29.92 in1013.2 mb 0.00 in0.0 mm 0.00 in0.0 mm 0.07 in1.8 mm
02:16 PM 37.0°F2.8°C 31.1°F-0.5°C 79% 3.0 mph NW4.8 kmh NW 11.0 mph17.7 kmh 29.92 in1013.2 mb 0.00 in0.0 mm 0.00 in0.0 mm 0.07 in1.8 mm
02:14 PM 37.1°F2.8°C 31.2°F-0.4°C 79% 2.0 mph W3.2 kmh W 11.0 mph17.7 kmh 29.91 in1012.9 mb 0.00 in0.0 mm 0.00 in0.0 mm 0.07 in1.8 mm
02:12 PM 37.1°F2.8°C 30.9°F-0.6°C 78% 2.0 mph WNW3.2 kmh WNW 11.0 mph17.7 kmh 29.91 in1012.9 mb 0.00 in0.0 mm 0.00 in0.0 mm 0.06 in1.5 mm
02:10 PM 37.2°F2.9°C 31.0°F-0.6°C 78% 4.0 mph WNW6.4 kmh WNW 11.0 mph17.7 kmh 29.91 in1012.9 mb 0.00 in0.0 mm 0.00 in0.0 mm 0.06 in1.5 mm
02:08 PM 37.2°F2.9°C 31.0°F-0.6°C 78% 5.0 mph NNW8.0 kmh NNW 11.0 mph17.7 kmh 29.91 in1012.9 mb 0.00 in0.0 mm 0.00 in0.0 mm 0.06 in1.5 mm
02:06 PM 37.3°F2.9°C 31.1°F-0.5°C 78% 5.0 mph NW8.0 kmh NW 8.0 mph12.9 kmh 29.91 in1012.9 mb 0.00 in0.0 mm 0.00 in0.0 mm 0.06 in1.5 mm
02:04 PM 37.3°F2.9°C 31.1°F-0.5°C 78% 3.0 mph WNW4.8 kmh WNW 8.0 mph12.9 kmh 29.91 in1012.9 mb 0.00 in0.0 mm 0.00 in0.0 mm 0.06 in1.5 mm
02:02 PM 37.3°F2.9°C 31.4°F-0.3°C 79% 4.0 mph NW6.4 kmh NW 8.0 mph12.9 kmh 29.91 in1012.9 mb 0.00 in0.0 mm 0.00 in0.0 mm 0.06 in1.5 mm
02:00 PM 37.4°F3.0°C 31.5°F-0.3°C 79% 2.0 mph WNW3.2 kmh WNW 8.0 mph12.9 kmh 29.91 in1012.9 mb 0.00 in0.0 mm 0.00 in0.0 mm 0.06 in1.5 mm
01:58 PM 37.4°F3.0°C 31.5°F-0.3°C 79% 2.0 mph NW3.2 kmh NW 8.0 mph12.9 kmh 29.91 in1012.9 mb 0.00 in0.0 mm 0.00 in0.0 mm 0.06 in1.5 mm
01:56 PM 37.4°F3.0°C 31.8°F-0.1°C 80% 5.0 mph WNW8.0 kmh WNW 8.0 mph12.9 kmh 29.91 in1012.9 mb 0.00 in0.0 mm 0.00 in0.0 mm 0.06 in1.5 mm
01:54 PM 37.4°F3.0°C 31.8°F-0.1°C 80% 2.0 mph WNW3.2 kmh WNW 8.0 mph12.9 kmh 29.91 in1012.9 mb 0.00 in0.0 mm 0.00 in0.0 mm 0.06 in1.5 mm
01:52 PM 37.4°F3.0°C 32.1°F0.1°C 81% 8.0 mph S12.9 kmh S 8.0 mph12.9 kmh 29.91 in1012.9 mb 0.00 in0.0 mm 0.00 in0.0 mm 0.06 in1.5 mm
01:50 PM 37.4°F3.0°C 32.1°F0.1°C 81% 4.0 mph WNW6.4 kmh WNW 7.0 mph11.3 kmh 29.91 in1012.9 mb 0.00 in0.0 mm 0.00 in0.0 mm 0.06 in1.5 mm
01:48 PM 37.4°F3.0°C 32.4°F0.2°C 82% 4.0 mph NW6.4 kmh NW 7.0 mph11.3 kmh 29.91 in1012.9 mb 0.00 in0.0 mm 0.00 in0.0 mm 0.06 in1.5 mm
01:46 PM 37.3°F2.9°C 32.6°F0.3°C 83% 3.0 mph NW4.8 kmh NW 7.0 mph11.3 kmh 29.91 in1012.9 mb 0.00 in0.0 mm 0.00 in0.0 mm 0.06 in1.5 mm
01:44 PM 37.2°F2.9°C 32.5°F0.3°C 83% 2.0 mph W3.2 kmh W 7.0 mph11.3 kmh 29.91 in1012.9 mb 0.00 in0.0 mm 0.00 in0.0 mm 0.05 in1.3 mm
01:42 PM 37.1°F2.8°C 32.1°F0.1°C 82% 2.0 mph WNW3.2 kmh WNW 9.0 mph14.5 kmh 29.91 in1012.9 mb 0.00 in0.0 mm 0.00 in0.0 mm 0.05 in1.3 mm
01:40 PM 37.0°F2.8°C 32.3°F0.2°C 83% 2.0 mph WNW3.2 kmh WNW 9.0 mph14.5 kmh 29.91 in1012.9 mb 0.04 in1.0 mm 0.00 in0.0 mm 0.05 in1.3 mm
01:38 PM 37.0°F2.8°C 32.6°F0.3°C 84% 3.0 mph WNW4.8 kmh WNW 9.0 mph14.5 kmh 29.91 in1012.9 mb 0.04 in1.0 mm 0.00 in0.0 mm 0.05 in1.3 mm
01:36 PM 36.9°F2.7°C 32.8°F0.4°C 85% 2.0 mph WNW3.2 kmh WNW 9.0 mph14.5 kmh 29.91 in1012.9 mb 0.04 in1.0 mm 0.00 in0.0 mm 0.05 in1.3 mm
01:34 PM 36.7°F2.6°C 32.3°F0.2°C 84% 2.0 mph NW3.2 kmh NW 9.0 mph14.5 kmh 29.91 in1012.9 mb 0.04 in1.0 mm 0.00 in0.0 mm 0.05 in1.3 mm
01:32 PM 36.6°F2.6°C 32.5°F0.3°C 85% 2.0 mph WNW3.2 kmh WNW 9.0 mph14.5 kmh 29.91 in1012.9 mb 0.04 in1.0 mm 0.00 in0.0 mm 0.05 in1.3 mm
01:30 PM 36.5°F2.5°C 32.1°F0.1°C 84% Calm Calm 9.0 mph14.5 kmh 29.91 in1012.9 mb 0.04 in1.0 mm 0.00 in0.0 mm 0.05 in1.3 mm
01:28 PM 36.4°F2.4°C 32.0°F0.0°C 84% 4.0 mph WNW6.4 kmh WNW 9.0 mph14.5 kmh 29.91 in1012.9 mb 0.04 in1.0 mm 0.00 in0.0 mm 0.05 in1.3 mm
01:26 PM 36.3°F2.4°C 31.9°F-0.1°C 84% 3.0 mph WNW4.8 kmh WNW 9.0 mph14.5 kmh 29.91 in1012.9 mb 0.04 in1.0 mm 0.00 in0.0 mm 0.05 in1.3 mm
01:24 PM 36.2°F2.3°C 32.4°F0.2°C 86% 4.0 mph WNW6.4 kmh WNW 9.0 mph14.5 kmh 29.91 in1012.9 mb 0.04 in1.0 mm 1.20 in30.5 mm 0.04 in1.0 mm
01:22 PM 36.2°F2.3°C 32.4°F0.2°C 86% 2.0 mph WNW3.2 kmh WNW 4.0 mph6.4 kmh 29.91 in1012.9 mb 0.00 in0.0 mm 0.00 in0.0 mm 0.04 in1.0 mm
01:20 PM 36.1°F2.3°C 32.6°F0.3°C 87% 2.0 mph NW3.2 kmh NW 4.0 mph6.4 kmh 29.91 in1012.9 mb 0.00 in0.0 mm 0.00 in0.0 mm 0.04 in1.0 mm
01:18 PM 36.0°F2.2°C 32.2°F0.1°C 86% Calm Calm 4.0 mph6.4 kmh 29.91 in1012.9 mb 0.00 in0.0 mm 0.00 in0.0 mm 0.04 in1.0 mm
01:16 PM 35.9°F2.2°C 32.1°F0.1°C 86% 2.0 mph NW3.2 kmh NW 4.0 mph6.4 kmh 29.91 in1012.9 mb 0.00 in0.0 mm 0.00 in0.0 mm 0.04 in1.0 mm
01:14 PM 35.8°F2.1°C 32.3°F0.2°C 87% 2.0 mph NW3.2 kmh NW 4.0 mph6.4 kmh 29.91 in1012.9 mb 0.00 in0.0 mm 0.00 in0.0 mm 0.04 in1.0 mm
01:12 PM 35.7°F2.1°C 32.2°F0.1°C 87% 2.0 mph WNW3.2 kmh WNW 4.0 mph6.4 kmh 29.91 in1012.9 mb 0.00 in0.0 mm 0.00 in0.0 mm 0.04 in1.0 mm
01:10 PM 35.7°F2.1°C 32.2°F0.1°C 87% 2.0 mph WNW3.2 kmh WNW 6.0 mph9.7 kmh 29.91 in1012.9 mb 0.00 in0.0 mm 0.00 in0.0 mm 0.04 in1.0 mm
01:08 PM 35.7°F2.1°C 32.2°F0.1°C 87% 2.0 mph WNW3.2 kmh WNW 6.0 mph9.7 kmh 29.91 in1012.9 mb 0.00 in0.0 mm 0.00 in0.0 mm 0.03 in0.8 mm
01:06 PM 35.6°F2.0°C 32.1°F0.1°C 87% 1.0 mph NW1.6 kmh NW 6.0 mph9.7 kmh 29.91 in1012.9 mb 0.00 in0.0 mm 0.00 in0.0 mm 0.03 in0.8 mm
01:04 PM 35.6°F2.0°C 32.1°F0.1°C 87% 1.0 mph NW1.6 kmh NW 6.0 mph9.7 kmh 29.91 in1012.9 mb 0.00 in0.0 mm 0.00 in0.0 mm 0.03 in0.8 mm
01:02 PM 35.5°F1.9°C 32.0°F0.0°C 87% 2.0 mph NW3.2 kmh NW 6.0 mph9.7 kmh 29.91 in1012.9 mb 0.00 in0.0 mm 0.00 in0.0 mm 0.03 in0.8 mm
01:00 PM 35.5°F1.9°C 32.0°F0.0°C 87% 2.0 mph NW3.2 kmh NW 6.0 mph9.7 kmh 29.91 in1012.9 mb 0.00 in0.0 mm 0.00 in0.0 mm 0.03 in0.8 mm
12:58 PM 35.4°F1.9°C 31.9°F-0.1°C 87% 3.0 mph NW4.8 kmh NW 6.0 mph9.7 kmh 29.91 in1012.9 mb 0.00 in0.0 mm 0.00 in0.0 mm 0.03 in0.8 mm
12:56 PM 35.4°F1.9°C 31.9°F-0.1°C 87% 2.0 mph NW3.2 kmh NW 6.0 mph9.7 kmh 29.91 in1012.9 mb 0.00 in0.0 mm 0.00 in0.0 mm 0.03 in0.8 mm
12:54 PM 35.3°F1.8°C 31.8°F-0.1°C 87% 3.0 mph NNW4.8 kmh NNW 6.0 mph9.7 kmh 29.91 in1012.9 mb 0.00 in0.0 mm 0.00 in0.0 mm 0.03 in0.8 mm
12:52 PM 35.2°F1.8°C 31.7°F-0.2°C 87% 3.0 mph NW4.8 kmh NW 6.0 mph9.7 kmh 29.91 in1012.9 mb 0.00 in0.0 mm 0.00 in0.0 mm 0.03 in0.8 mm
12:50 PM 35.2°F1.8°C 31.7°F-0.2°C 87% 2.0 mph NNW3.2 kmh NNW 5.0 mph8.0 kmh 29.91 in1012.9 mb 0.00 in0.0 mm 0.00 in0.0 mm 0.03 in0.8 mm
12:48 PM 35.1°F1.7°C 31.6°F-0.2°C 87% 4.0 mph NW6.4 kmh NW 5.0 mph8.0 kmh 29.91 in1012.9 mb 0.00 in0.0 mm 0.00 in0.0 mm 0.03 in0.8 mm
12:46 PM 35.1°F1.7°C 31.9°F-0.1°C 88% 3.0 mph NW4.8 kmh NW 4.0 mph6.4 kmh 29.91 in1012.9 mb 0.00 in0.0 mm 0.00 in0.0 mm 0.03 in0.8 mm
12:44 PM 35.1°F1.7°C 31.9°F-0.1°C 88% 3.0 mph NW4.8 kmh NW 4.0 mph6.4 kmh 29.91 in1012.9 mb 0.00 in0.0 mm 0.00 in0.0 mm 0.03 in0.8 mm
12:42 PM 35.0°F1.7°C 31.8°F-0.1°C 88% 2.0 mph NW3.2 kmh NW 4.0 mph6.4 kmh 29.91 in1012.9 mb 0.00 in0.0 mm 0.00 in0.0 mm 0.03 in0.8 mm
12:40 PM 35.0°F1.7°C 31.8°F-0.1°C 88% 4.0 mph NW6.4 kmh NW 4.0 mph6.4 kmh 29.91 in1012.9 mb 0.00 in0.0 mm 0.00 in0.0 mm 0.03 in0.8 mm
12:38 PM 35.0°F1.7°C 31.8°F-0.1°C 88% 2.0 mph NW3.2 kmh NW 4.0 mph6.4 kmh 29.91 in1012.9 mb 0.00 in0.0 mm 0.00 in0.0 mm 0.03 in0.8 mm
12:36 PM 34.9°F1.6°C 31.7°F-0.2°C 88% 3.0 mph NW4.8 kmh NW 4.0 mph6.4 kmh 29.91 in1012.9 mb 0.00 in0.0 mm 0.00 in0.0 mm 0.03 in0.8 mm
12:34 PM 34.8°F1.6°C 31.9°F-0.1°C 89% 2.0 mph NW3.2 kmh NW 4.0 mph6.4 kmh 29.91 in1012.9 mb 0.00 in0.0 mm 0.00 in0.0 mm 0.03 in0.8 mm
12:32 PM 34.8°F1.6°C 31.9°F-0.1°C 89% 3.0 mph NW4.8 kmh NW 4.0 mph6.4 kmh 29.91 in1012.9 mb 0.00 in0.0 mm 0.00 in0.0 mm 0.03 in0.8 mm
12:30 PM 34.8°F1.6°C 31.6°F-0.2°C 88% 2.0 mph NW3.2 kmh NW 4.0 mph6.4 kmh 29.91 in1012.9 mb 0.00 in0.0 mm 0.00 in0.0 mm 0.03 in0.8 mm
12:28 PM 34.7°F1.5°C 31.5°F-0.3°C 88% 2.0 mph NW3.2 kmh NW 4.0 mph6.4 kmh 29.91 in1012.9 mb 0.00 in0.0 mm 0.00 in0.0 mm 0.03 in0.8 mm
12:26 PM 34.7°F1.5°C 31.5°F-0.3°C 88% 3.0 mph NW4.8 kmh NW 4.0 mph6.4 kmh 29.91 in1012.9 mb 0.00 in0.0 mm 0.00 in0.0 mm 0.03 in0.8 mm
12:24 PM 34.6°F1.4°C 31.7°F-0.2°C 89% 2.0 mph NW3.2 kmh NW 4.0 mph6.4 kmh 29.91 in1012.9 mb 0.00 in0.0 mm 0.00 in0.0 mm 0.03 in0.8 mm
12:22 PM 34.6°F1.4°C 31.7°F-0.2°C 89% 3.0 mph NW4.8 kmh NW 4.0 mph6.4 kmh 29.91 in1012.9 mb 0.00 in0.0 mm 0.00 in0.0 mm 0.03 in0.8 mm
12:20 PM 34.5°F1.4°C 31.6°F-0.2°C 89% 2.0 mph NW3.2 kmh NW 7.0 mph11.3 kmh 29.91 in1012.9 mb 0.00 in0.0 mm 0.00 in0.0 mm 0.03 in0.8 mm
12:18 PM 34.4°F1.3°C 31.5°F-0.3°C 89% 2.0 mph NW3.2 kmh NW 7.0 mph11.3 kmh 29.91 in1012.9 mb 0.00 in0.0 mm 0.00 in0.0 mm 0.03 in0.8 mm
12:16 PM 34.3°F1.3°C 31.4°F-0.3°C 89% 3.0 mph NW4.8 kmh NW 7.0 mph11.3 kmh 29.91 in1012.9 mb 0.00 in0.0 mm 0.00 in0.0 mm 0.03 in0.8 mm
12:14 PM 34.2°F1.2°C 31.3°F-0.4°C 89% 3.0 mph NW4.8 kmh NW 7.0 mph11.3 kmh 29.91 in1012.9 mb 0.00 in0.0 mm 0.00 in0.0 mm 0.03 in0.8 mm
12:12 PM 34.1°F1.2°C 30.9°F-0.6°C 88% 3.0 mph NW4.8 kmh NW 7.0 mph11.3 kmh 29.91 in1012.9 mb 0.00 in0.0 mm 0.00 in0.0 mm 0.03 in0.8 mm
12:10 PM 34.0°F1.1°C 30.8°F-0.7°C 88% 1.0 mph NW1.6 kmh NW 7.0 mph11.3 kmh 29.91 in1012.9 mb 0.00 in0.0 mm 0.00 in0.0 mm 0.03 in0.8 mm
12:08 PM 33.9°F1.1°C 30.7°F-0.7°C 88% 3.0 mph NW4.8 kmh NW 7.0 mph11.3 kmh 29.91 in1012.9 mb 0.00 in0.0 mm 0.00 in0.0 mm 0.03 in0.8 mm
12:06 PM 33.9°F1.1°C 30.7°F-0.7°C 88% 3.0 mph NW4.8 kmh NW 7.0 mph11.3 kmh 29.91 in1012.9 mb 0.00 in0.0 mm 0.00 in0.0 mm 0.03 in0.8 mm
12:04 PM 33.8°F1.0°C 30.6°F-0.8°C 88% 2.0 mph NW3.2 kmh NW 7.0 mph11.3 kmh 29.91 in1012.9 mb 0.00 in0.0 mm 0.00 in0.0 mm 0.03 in0.8 mm
12:02 PM 33.8°F1.0°C 30.6°F-0.8°C 88% 1.0 mph NW1.6 kmh NW 7.0 mph11.3 kmh 29.91 in1012.9 mb 0.00 in0.0 mm 0.00 in0.0 mm 0.03 in0.8 mm
12:00 PM 33.7°F0.9°C 30.3°F-0.9°C 87% 2.0 mph NW3.2 kmh NW 7.0 mph11.3 kmh 29.91 in1012.9 mb 0.00 in0.0 mm 0.00 in0.0 mm 0.03 in0.8 mm
11:58 AM 33.7°F0.9°C 30.3°F-0.9°C 87% 3.0 mph NW4.8 kmh NW 7.0 mph11.3 kmh 29.91 in1012.9 mb 0.00 in0.0 mm 0.00 in0.0 mm 0.03 in0.8 mm
11:56 AM 33.8°F1.0°C 30.3°F-0.9°C 87% 2.0 mph W3.2 kmh W 7.0 mph11.3 kmh 29.91 in1012.9 mb 0.00 in0.0 mm 0.00 in0.0 mm 0.03 in0.8 mm
11:54 AM 33.9°F1.1°C 30.2°F-1.0°C 86% 2.0 mph NW3.2 kmh NW 7.0 mph11.3 kmh 29.91 in1012.9 mb 0.00 in0.0 mm 0.00 in0.0 mm 0.03 in0.8 mm
11:52 AM 34.0°F1.1°C 30.3°F-0.9°C 86% 3.0 mph NW4.8 kmh NW 7.0 mph11.3 kmh 29.91 in1012.9 mb 0.00 in0.0 mm 0.00 in0.0 mm 0.03 in0.8 mm
11:50 AM 34.2°F1.2°C 30.2°F-1.0°C 85% 2.0 mph NW3.2 kmh NW 9.0 mph14.5 kmh 29.92 in1013.2 mb 0.00 in0.0 mm 0.00 in0.0 mm 0.03 in0.8 mm
11:48 AM 34.4°F1.3°C 30.4°F-0.9°C 85% 2.0 mph NW3.2 kmh NW 9.0 mph14.5 kmh 29.92 in1013.2 mb 0.00 in0.0 mm 0.00 in0.0 mm 0.03 in0.8 mm
11:46 AM 34.6°F1.4°C 30.6°F-0.8°C 85% 3.0 mph NW4.8 kmh NW 9.0 mph14.5 kmh 29.92 in1013.2 mb 0.00 in0.0 mm 0.00 in0.0 mm 0.03 in0.8 mm
11:44 AM 34.8°F1.6°C 30.8°F-0.7°C 85% 3.0 mph NNW4.8 kmh NNW 9.0 mph14.5 kmh 29.92 in1013.2 mb 0.00 in0.0 mm 0.00 in0.0 mm 0.03 in0.8 mm
11:42 AM 35.0°F1.7°C 30.7°F-0.7°C 84% 5.0 mph NW8.0 kmh NW 9.0 mph14.5 kmh 29.92 in1013.2 mb 0.00 in0.0 mm 0.00 in0.0 mm 0.03 in0.8 mm
11:40 AM 35.3°F1.8°C 31.0°F-0.6°C 84% 5.0 mph NW8.0 kmh NW 9.0 mph14.5 kmh 29.92 in1013.2 mb 0.00 in0.0 mm 0.00 in0.0 mm 0.03 in0.8 mm
11:38 AM 35.5°F1.9°C 30.9°F-0.6°C 83% 1.0 mph NW1.6 kmh NW 9.0 mph14.5 kmh 29.92 in1013.2 mb 0.00 in0.0 mm 0.00 in0.0 mm 0.03 in0.8 mm
11:36 AM 35.9°F2.2°C 31.2°F-0.4°C 83% 4.0 mph NW6.4 kmh NW 9.0 mph14.5 kmh 29.92 in1013.2 mb 0.00 in0.0 mm 0.00 in0.0 mm 0.03 in0.8 mm
11:34 AM 36.3°F2.4°C 31.3°F-0.4°C 82% 5.0 mph NW8.0 kmh NW 9.0 mph14.5 kmh 29.92 in1013.2 mb 0.00 in0.0 mm 0.00 in0.0 mm 0.03 in0.8 mm
11:32 AM 36.8°F2.7°C 31.8°F-0.1°C 82% 5.0 mph NW8.0 kmh NW 9.0 mph14.5 kmh 29.92 in1013.2 mb 0.00 in0.0 mm 0.00 in0.0 mm 0.03 in0.8 mm
11:30 AM 37.0°F2.8°C 32.0°F0.0°C 82% 5.0 mph NNW8.0 kmh NNW 8.0 mph12.9 kmh 29.92 in1013.2 mb 0.00 in0.0 mm 0.00 in0.0 mm 0.03 in0.8 mm
11:28 AM 37.1°F2.8°C 32.1°F0.1°C 82% 3.0 mph NNE4.8 kmh NNE 7.0 mph11.3 kmh 29.92 in1013.2 mb 0.00 in0.0 mm 0.00 in0.0 mm 0.03 in0.8 mm
11:26 AM 37.1°F2.8°C 31.8°F-0.1°C 81% 5.0 mph WNW8.0 kmh WNW 7.0 mph11.3 kmh 29.92 in1013.2 mb 0.00 in0.0 mm 0.00 in0.0 mm 0.03 in0.8 mm
11:24 AM 37.1°F2.8°C 32.1°F0.1°C 82% 3.0 mph NW4.8 kmh NW 7.0 mph11.3 kmh 29.92 in1013.2 mb 0.00 in0.0 mm 0.00 in0.0 mm 0.03 in0.8 mm
11:22 AM 37.1°F2.8°C 32.1°F0.1°C 82% 4.0 mph NW6.4 kmh NW 7.0 mph11.3 kmh 29.92 in1013.2 mb 0.00 in0.0 mm 0.00 in0.0 mm 0.03 in0.8 mm
11:20 AM 37.1°F2.8°C 31.8°F-0.1°C 81% 4.0 mph WNW6.4 kmh WNW 7.0 mph11.3 kmh 29.92 in1013.2 mb 0.00 in0.0 mm 0.00 in0.0 mm 0.03 in0.8 mm
11:18 AM 37.2°F2.9°C 32.2°F0.1°C 82% 5.0 mph NW8.0 kmh NW 6.0 mph9.7 kmh 29.91 in1012.9 mb 0.00 in0.0 mm 0.00 in0.0 mm 0.03 in0.8 mm
11:16 AM 37.2°F2.9°C 31.9°F-0.1°C 81% 2.0 mph W3.2 kmh W 9.0 mph14.5 kmh 29.91 in1012.9 mb 0.00 in0.0 mm 0.00 in0.0 mm 0.03 in0.8 mm
11:14 AM 37.2°F2.9°C 31.9°F-0.1°C 81% 3.0 mph W4.8 kmh W 9.0 mph14.5 kmh 29.91 in1012.9 mb 0.00 in0.0 mm 0.00 in0.0 mm 0.03 in0.8 mm
11:12 AM 37.3°F2.9°C 31.7°F-0.2°C 80% 2.0 mph W3.2 kmh W 9.0 mph14.5 kmh 29.91 in1012.9 mb 0.00 in0.0 mm 0.00 in0.0 mm 0.03 in0.8 mm
11:10 AM 37.3°F2.9°C 31.7°F-0.2°C 80% 2.0 mph W3.2 kmh W 9.0 mph14.5 kmh 29.91 in1012.9 mb 0.00 in0.0 mm 0.00 in0.0 mm 0.03 in0.8 mm
11:08 AM 37.4°F3.0°C 31.5°F-0.3°C 79% 4.0 mph NW6.4 kmh NW 9.0 mph14.5 kmh 29.92 in1013.2 mb 0.00 in0.0 mm 0.00 in0.0 mm 0.03 in0.8 mm
11:06 AM 37.5°F3.1°C 31.3°F-0.4°C 78% 2.0 mph WSW3.2 kmh WSW 9.0 mph14.5 kmh 29.91 in1012.9 mb 0.00 in0.0 mm 0.00 in0.0 mm 0.03 in0.8 mm
11:04 AM 37.6°F3.1°C 31.7°F-0.2°C 79% 3.0 mph NW4.8 kmh NW 9.0 mph14.5 kmh 29.91 in1012.9 mb 0.00 in0.0 mm 0.00 in0.0 mm 0.03 in0.8 mm
11:02 AM 37.6°F3.1°C 31.4°F-0.3°C 78% 2.0 mph NW3.2 kmh NW 9.0 mph14.5 kmh 29.91 in1012.9 mb 0.00 in0.0 mm 0.00 in0.0 mm 0.03 in0.8 mm
11:00 AM 37.6°F3.1°C 31.1°F-0.5°C 77% 5.0 mph WNW8.0 kmh WNW 9.0 mph14.5 kmh 29.91 in1012.9 mb 0.00 in0.0 mm 0.00 in0.0 mm 0.03 in0.8 mm
10:58 AM 37.6°F3.1°C 31.1°F-0.5°C 77% 3.0 mph W4.8 kmh W 9.0 mph14.5 kmh 29.91 in1012.9 mb 0.00 in0.0 mm 0.00 in0.0 mm 0.03 in0.8 mm
10:56 AM 37.6°F3.1°C 31.1°F-0.5°C 77% 4.0 mph W6.4 kmh W 8.0 mph12.9 kmh 29.91 in1012.9 mb 0.00 in0.0 mm 0.00 in0.0 mm 0.03 in0.8 mm
10:54 AM 37.6°F3.1°C 31.1°F-0.5°C 77% 4.0 mph NW6.4 kmh NW 8.0 mph12.9 kmh 29.91 in1012.9 mb 0.00 in0.0 mm 0.00 in0.0 mm 0.03 in0.8 mm
10:52 AM 37.6°F3.1°C 31.1°F-0.5°C 77% 4.0 mph WSW6.4 kmh WSW 8.0 mph12.9 kmh 29.91 in1012.9 mb 0.00 in0.0 mm 0.00 in0.0 mm 0.03 in0.8 mm
10:50 AM 37.7°F3.2°C 31.2°F-0.4°C 77% 4.0 mph NW6.4 kmh NW 8.0 mph12.9 kmh 29.91 in1012.9 mb 0.00 in0.0 mm 0.00 in0.0 mm 0.03 in0.8 mm
10:48 AM 37.6°F3.1°C 31.4°F-0.3°C 78% 4.0 mph NW6.4 kmh NW 5.0 mph8.0 kmh 29.91 in1012.9 mb 0.00 in0.0 mm 0.00 in0.0 mm 0.03 in0.8 mm
10:46 AM 37.7°F3.2°C 31.2°F-0.4°C 77% 1.0 mph NW1.6 kmh NW 5.0 mph8.0 kmh 29.91 in1012.9 mb 0.00 in0.0 mm 0.00 in0.0 mm 0.03 in0.8 mm
10:44 AM 37.7°F3.2°C 31.2°F-0.4°C 77% 2.0 mph NW3.2 kmh NW 5.0 mph8.0 kmh 29.91 in1012.9 mb 0.00 in0.0 mm 0.00 in0.0 mm 0.03 in0.8 mm
10:42 AM 37.7°F3.2°C 31.5°F-0.3°C 78% 4.0 mph NW6.4 kmh NW 5.0 mph8.0 kmh 29.91 in1012.9 mb 0.00 in0.0 mm 0.00 in0.0 mm 0.03 in0.8 mm
10:40 AM 37.7°F3.2°C 31.5°F-0.3°C 78% 3.0 mph WNW4.8 kmh WNW 5.0 mph8.0 kmh 29.90 in1012.5 mb 0.00 in0.0 mm 0.00 in0.0 mm 0.03 in0.8 mm
10:38 AM 37.7°F3.2°C 31.2°F-0.4°C 77% 2.0 mph NW3.2 kmh NW 5.0 mph8.0 kmh 29.91 in1012.9 mb 0.00 in0.0 mm 0.00 in0.0 mm 0.03 in0.8 mm
10:36 AM 37.7°F3.2°C 31.2°F-0.4°C 77% 3.0 mph NNW4.8 kmh NNW 6.0 mph9.7 kmh 29.90 in1012.5 mb 0.00 in0.0 mm 0.00 in0.0 mm 0.03 in0.8 mm
10:34 AM 37.7°F3.2°C 30.8°F-0.7°C 76% 3.0 mph NW4.8 kmh NW 6.0 mph9.7 kmh 29.90 in1012.5 mb 0.00 in0.0 mm 0.00 in0.0 mm 0.03 in0.8 mm
10:32 AM 37.7°F3.2°C 30.8°F-0.7°C 76% 3.0 mph NW4.8 kmh NW 6.0 mph9.7 kmh 29.90 in1012.5 mb 0.00 in0.0 mm 0.00 in0.0 mm 0.03 in0.8 mm
10:30 AM 37.8°F3.2°C 31.6°F-0.2°C 78% 4.0 mph NW6.4 kmh NW 6.0 mph9.7 kmh 29.90 in1012.5 mb 0.00 in0.0 mm 0.00 in0.0 mm 0.03 in0.8 mm
10:28 AM 37.8°F3.2°C 31.2°F-0.4°C 77% 2.0 mph NW3.2 kmh NW 6.0 mph9.7 kmh 29.90 in1012.5 mb 0.00 in0.0 mm 0.00 in0.0 mm 0.03 in0.8 mm
10:26 AM 37.8°F3.2°C 31.2°F-0.4°C 77% 3.0 mph WNW4.8 kmh WNW 8.0 mph12.9 kmh 29.90 in1012.5 mb 0.00 in0.0 mm 0.00 in0.0 mm 0.03 in0.8 mm
10:24 AM 37.8°F3.2°C 30.9°F-0.6°C 76% 3.0 mph WNW4.8 kmh WNW 8.0 mph12.9 kmh 29.90 in1012.5 mb 0.00 in0.0 mm 0.00 in0.0 mm 0.03 in0.8 mm
10:22 AM 37.8°F3.2°C 31.2°F-0.4°C 77% 2.0 mph N3.2 kmh N 8.0 mph12.9 kmh 29.90 in1012.5 mb 0.00 in0.0 mm 0.00 in0.0 mm 0.03 in0.8 mm
10:20 AM 37.8°F3.2°C 30.9°F-0.6°C 76% 3.0 mph NW4.8 kmh NW 8.0 mph12.9 kmh 29.90 in1012.5 mb 0.00 in0.0 mm 0.00 in0.0 mm 0.03 in0.8 mm
10:18 AM 37.8°F3.2°C 31.2°F-0.4°C 77% 2.0 mph NW3.2 kmh NW 8.0 mph12.9 kmh 29.90 in1012.5 mb 0.00 in0.0 mm 0.00 in0.0 mm 0.03 in0.8 mm
10:16 AM 37.8°F3.2°C 31.2°F-0.4°C 77% 3.0 mph WNW4.8 kmh WNW 8.0 mph12.9 kmh 29.90 in1012.5 mb 0.00 in0.0 mm 0.00 in0.0 mm 0.03 in0.8 mm
10:14 AM 37.8°F3.2°C 31.2°F-0.4°C 77% 3.0 mph NW4.8 kmh NW 8.0 mph12.9 kmh 29.90 in1012.5 mb 0.00 in0.0 mm 0.00 in0.0 mm 0.03 in0.8 mm
10:12 AM 37.8°F3.2°C 30.9°F-0.6°C 76% 4.0 mph NW6.4 kmh NW 8.0 mph12.9 kmh 29.90 in1012.5 mb 0.00 in0.0 mm 0.00 in0.0 mm 0.03 in0.8 mm
10:10 AM 37.8°F3.2°C 30.6°F-0.8°C 75% 4.0 mph NW6.4 kmh NW 8.0 mph12.9 kmh 29.90 in1012.5 mb 0.00 in0.0 mm 0.00 in0.0 mm 0.03 in0.8 mm
10:08 AM 37.8°F3.2°C 30.9°F-0.6°C 76% 4.0 mph NW6.4 kmh NW 8.0 mph12.9 kmh 29.90 in1012.5 mb 0.00 in0.0 mm 0.00 in0.0 mm 0.03 in0.8 mm
10:06 AM 37.9°F3.3°C 31.0°F-0.6°C 76% 4.0 mph NW6.4 kmh NW 7.0 mph11.3 kmh 29.90 in1012.5 mb 0.00 in0.0 mm 0.00 in0.0 mm 0.03 in0.8 mm
10:04 AM 37.9°F3.3°C 31.3°F-0.4°C 77% 4.0 mph W6.4 kmh W 7.0 mph11.3 kmh 29.90 in1012.5 mb 0.00 in0.0 mm 0.00 in0.0 mm 0.03 in0.8 mm
10:02 AM 37.9°F3.3°C 31.3°F-0.4°C 77% 1.0 mph WNW1.6 kmh WNW 7.0 mph11.3 kmh 29.90 in1012.5 mb 0.00 in0.0 mm 0.00 in0.0 mm 0.03 in0.8 mm
10:00 AM 37.9°F3.3°C 31.3°F-0.4°C 77% 6.0 mph W9.7 kmh W 8.0 mph12.9 kmh 29.90 in1012.5 mb 0.00 in0.0 mm 0.00 in0.0 mm 0.03 in0.8 mm
09:58 AM 38.0°F3.3°C 31.4°F-0.3°C 77% 3.0 mph NW4.8 kmh NW 8.0 mph12.9 kmh 29.90 in1012.5 mb 0.00 in0.0 mm 0.00 in0.0 mm 0.03 in0.8 mm
09:56 AM 38.0°F3.3°C 31.1°F-0.5°C 76% 2.0 mph NW3.2 kmh NW 8.0 mph12.9 kmh 29.90 in1012.5 mb 0.00 in0.0 mm 0.00 in0.0 mm 0.03 in0.8 mm
09:54 AM 38.0°F3.3°C 31.1°F-0.5°C 76% 2.0 mph W3.2 kmh W 8.0 mph12.9 kmh 29.89 in1012.2 mb 0.00 in0.0 mm 0.00 in0.0 mm 0.03 in0.8 mm
09:52 AM 38.1°F3.4°C 31.5°F-0.3°C 77% 3.0 mph WNW4.8 kmh WNW 8.0 mph12.9 kmh 29.89 in1012.2 mb 0.00 in0.0 mm 0.00 in0.0 mm 0.03 in0.8 mm
09:50 AM 38.1°F3.4°C 31.5°F-0.3°C 77% 1.0 mph W1.6 kmh W 8.0 mph12.9 kmh 29.89 in1012.2 mb 0.00 in0.0 mm 0.00 in0.0 mm 0.03 in0.8 mm
09:48 AM 38.0°F3.3°C 31.4°F-0.3°C 77% 2.0 mph NW3.2 kmh NW 8.0 mph12.9 kmh 29.89 in1012.2 mb 0.00 in0.0 mm 0.00 in0.0 mm 0.03 in0.8 mm
09:46 AM 38.0°F3.3°C 31.4°F-0.3°C 77% 2.0 mph WNW3.2 kmh WNW 8.0 mph12.9 kmh 29.89 in1012.2 mb 0.00 in0.0 mm 0.00 in0.0 mm 0.03 in0.8 mm
09:44 AM 38.0°F3.3°C 31.1°F-0.5°C 76% 1.0 mph WNW1.6 kmh WNW 8.0 mph12.9 kmh 29.89 in1012.2 mb 0.00 in0.0 mm 0.00 in0.0 mm 0.03 in0.8 mm
09:42 AM 38.0°F3.3°C 31.1°F-0.5°C 76% 3.0 mph NW4.8 kmh NW 8.0 mph12.9 kmh 29.89 in1012.2 mb 0.00 in0.0 mm 0.00 in0.0 mm 0.03 in0.8 mm
09:40 AM 38.0°F3.3°C 31.4°F-0.3°C 77% 4.0 mph NW6.4 kmh NW 7.0 mph11.3 kmh 29.89 in1012.2 mb 0.00 in0.0 mm 0.00 in0.0 mm 0.03 in0.8 mm
09:38 AM 37.9°F3.3°C 31.0°F-0.6°C 76% 3.0 mph NW4.8 kmh NW 7.0 mph11.3 kmh 29.89 in1012.2 mb 0.00 in0.0 mm 0.00 in0.0 mm 0.03 in0.8 mm
09:36 AM 37.9°F3.3°C 31.0°F-0.6°C 76% 3.0 mph WSW4.8 kmh WSW 7.0 mph11.3 kmh 29.89 in1012.2 mb 0.00 in0.0 mm 0.00 in0.0 mm 0.03 in0.8 mm
09:34 AM 37.8°F3.2°C 30.9°F-0.6°C 76% 2.0 mph NW3.2 kmh NW 7.0 mph11.3 kmh 29.89 in1012.2 mb 0.00 in0.0 mm 0.00 in0.0 mm 0.03 in0.8 mm
09:32 AM 37.8°F3.2°C 30.6°F-0.8°C 75% 2.0 mph WNW3.2 kmh WNW 7.0 mph11.3 kmh 29.88 in1011.9 mb 0.00 in0.0 mm 0.00 in0.0 mm 0.03 in0.8 mm
09:30 AM 37.8°F3.2°C 30.9°F-0.6°C 76% 3.0 mph WNW4.8 kmh WNW 7.0 mph11.3 kmh 29.88 in1011.9 mb 0.00 in0.0 mm 0.00 in0.0 mm 0.03 in0.8 mm
09:28 AM 37.7°F3.2°C 30.5°F-0.8°C 75% 4.0 mph W6.4 kmh W 7.0 mph11.3 kmh 29.88 in1011.9 mb 0.00 in0.0 mm 0.00 in0.0 mm 0.03 in0.8 mm
09:26 AM 37.6°F3.1°C 30.4°F-0.9°C 75% 3.0 mph WNW4.8 kmh WNW 7.0 mph11.3 kmh 29.88 in1011.9 mb 0.00 in0.0 mm 0.00 in0.0 mm 0.03 in0.8 mm
09:24 AM 37.6°F3.1°C 30.7°F-0.7°C 76% 3.0 mph NW4.8 kmh NW 7.0 mph11.3 kmh 29.88 in1011.9 mb 0.00 in0.0 mm 0.00 in0.0 mm 0.03 in0.8 mm
09:22 AM 37.5°F3.1°C 30.3°F-0.9°C 75% 2.0 mph WNW3.2 kmh WNW 7.0 mph11.3 kmh 29.88 in1011.9 mb 0.00 in0.0 mm 0.00 in0.0 mm 0.03 in0.8 mm
09:20 AM 37.5°F3.1°C 30.3°F-0.9°C 75% 3.0 mph NW4.8 kmh NW 7.0 mph11.3 kmh 29.88 in1011.9 mb 0.00 in0.0 mm 0.00 in0.0 mm 0.03 in0.8 mm
09:18 AM 37.4°F3.0°C 30.2°F-1.0°C 75% 3.0 mph NW4.8 kmh NW 8.0 mph12.9 kmh 29.88 in1011.9 mb 0.00 in0.0 mm 0.00 in0.0 mm 0.03 in0.8 mm
09:16 AM 37.4°F3.0°C 30.2°F-1.0°C 75% 3.0 mph NW4.8 kmh NW 8.0 mph12.9 kmh 29.88 in1011.9 mb 0.00 in0.0 mm 0.00 in0.0 mm 0.03 in0.8 mm
09:14 AM 37.3°F2.9°C 30.1°F-1.1°C 75% 3.0 mph NW4.8 kmh NW 8.0 mph12.9 kmh 29.88 in1011.9 mb 0.00 in0.0 mm 0.00 in0.0 mm 0.03 in0.8 mm
09:12 AM 37.2°F2.9°C 29.4°F-1.4°C 73% 2.0 mph WNW3.2 kmh WNW 8.0 mph12.9 kmh 29.88 in1011.9 mb 0.00 in0.0 mm 0.00 in0.0 mm 0.03 in0.8 mm
09:10 AM 37.2°F2.9°C 29.4°F-1.4°C 73% 3.0 mph NW4.8 kmh NW 8.0 mph12.9 kmh 29.88 in1011.9 mb 0.00 in0.0 mm 0.00 in0.0 mm 0.03 in0.8 mm
09:08 AM 37.2°F2.9°C 29.7°F-1.3°C 74% 3.0 mph WNW4.8 kmh WNW 8.0 mph12.9 kmh 29.87 in1011.5 mb 0.00 in0.0 mm 0.00 in0.0 mm 0.03 in0.8 mm
09:06 AM 37.2°F2.9°C 29.4°F-1.4°C 73% 3.0 mph WNW4.8 kmh WNW 8.0 mph12.9 kmh 29.87 in1011.5 mb 0.00 in0.0 mm 0.00 in0.0 mm 0.03 in0.8 mm
09:04 AM 37.2°F2.9°C 29.4°F-1.4°C 73% 2.0 mph NW3.2 kmh NW 8.0 mph12.9 kmh 29.87 in1011.5 mb 0.00 in0.0 mm 0.00 in0.0 mm 0.03 in0.8 mm
09:02 AM 37.1°F2.8°C 29.3°F-1.5°C 73% 4.0 mph NW6.4 kmh NW 8.0 mph12.9 kmh 29.87 in1011.5 mb 0.00 in0.0 mm 0.00 in0.0 mm 0.03 in0.8 mm
09:00 AM 37.1°F2.8°C 28.9°F-1.7°C 72% 4.0 mph NW6.4 kmh NW 8.0 mph12.9 kmh 29.88 in1011.9 mb 0.00 in0.0 mm 0.00 in0.0 mm 0.03 in0.8 mm
08:58 AM 37.1°F2.8°C 29.3°F-1.5°C 73% 4.0 mph NW6.4 kmh NW 7.0 mph11.3 kmh 29.88 in1011.9 mb 0.00 in0.0 mm 0.00 in0.0 mm 0.03 in0.8 mm
08:56 AM 37.1°F2.8°C 29.3°F-1.5°C 73% 1.0 mph NW1.6 kmh NW 7.0 mph11.3 kmh 29.88 in1011.9 mb 0.00 in0.0 mm 0.00 in0.0 mm 0.03 in0.8 mm
08:54 AM 37.1°F2.8°C 29.3°F-1.5°C 73% 3.0 mph NNW4.8 kmh NNW 8.0 mph12.9 kmh 29.88 in1011.9 mb 0.00 in0.0 mm 0.00 in0.0 mm 0.03 in0.8 mm
08:52 AM 37.0°F2.8°C 28.8°F-1.8°C 72% 3.0 mph NNW4.8 kmh NNW 8.0 mph12.9 kmh 29.88 in1011.9 mb 0.00 in0.0 mm 0.00 in0.0 mm 0.03 in0.8 mm
08:50 AM 37.0°F2.8°C 28.5°F-1.9°C 71% 3.0 mph W4.8 kmh W 8.0 mph12.9 kmh 29.88 in1011.9 mb 0.00 in0.0 mm 0.00 in0.0 mm 0.03 in0.8 mm
08:48 AM 36.9°F2.7°C 28.7°F-1.8°C 72% 3.0 mph WNW4.8 kmh WNW 8.0 mph12.9 kmh 29.88 in1011.9 mb 0.00 in0.0 mm 0.00 in0.0 mm 0.03 in0.8 mm
08:46 AM 36.9°F2.7°C 28.4°F-2.0°C 71% 7.0 mph WNW11.3 kmh WNW 8.0 mph12.9 kmh 29.88 in1011.9 mb 0.00 in0.0 mm 0.00 in0.0 mm 0.03 in0.8 mm
08:44 AM 36.9°F2.7°C 28.4°F-2.0°C 71% 3.0 mph WNW4.8 kmh WNW 9.0 mph14.5 kmh 29.88 in1011.9 mb 0.00 in0.0 mm 0.00 in0.0 mm 0.03 in0.8 mm
08:42 AM 36.9°F2.7°C 28.4°F-2.0°C 71% 6.0 mph N9.7 kmh N 9.0 mph14.5 kmh 29.88 in1011.9 mb 0.00 in0.0 mm 0.00 in0.0 mm 0.03 in0.8 mm
08:40 AM 36.8°F2.7°C 28.6°F-1.9°C 72% 5.0 mph NW8.0 kmh NW 9.0 mph14.5 kmh 29.87 in1011.5 mb 0.00 in0.0 mm 0.00 in0.0 mm 0.03 in0.8 mm
08:38 AM 36.8°F2.7°C 28.3°F-2.1°C 71% 3.0 mph NW4.8 kmh NW 9.0 mph14.5 kmh 29.87 in1011.5 mb 0.00 in0.0 mm 0.00 in0.0 mm 0.03 in0.8 mm
08:36 AM 36.8°F2.7°C 28.6°F-1.9°C 72% 3.0 mph NW4.8 kmh NW 9.0 mph14.5 kmh 29.87 in1011.5 mb 0.00 in0.0 mm 0.00 in0.0 mm 0.03 in0.8 mm
08:34 AM 36.7°F2.6°C 28.2°F-2.1°C 71% 4.0 mph NW6.4 kmh NW 9.0 mph14.5 kmh 29.87 in1011.5 mb 0.00 in0.0 mm 0.00 in0.0 mm 0.03 in0.8 mm
08:32 AM 36.8°F2.7°C 28.6°F-1.9°C 72% 3.0 mph NW4.8 kmh NW 9.0 mph14.5 kmh 29.87 in1011.5 mb 0.00 in0.0 mm 0.00 in0.0 mm 0.03 in0.8 mm
08:30 AM 36.8°F2.7°C 28.6°F-1.9°C 72% 3.0 mph NW4.8 kmh NW 9.0 mph14.5 kmh 29.87 in1011.5 mb 0.00 in0.0 mm 0.00 in0.0 mm 0.03 in0.8 mm
08:28 AM 36.7°F2.6°C 27.9°F-2.3°C 70% 4.0 mph NNW6.4 kmh NNW 9.0 mph14.5 kmh 29.87 in1011.5 mb 0.00 in0.0 mm 0.00 in0.0 mm 0.03 in0.8 mm
08:26 AM 36.7°F2.6°C 27.9°F-2.3°C 70% 4.0 mph NNW6.4 kmh NNW 9.0 mph14.5 kmh 29.87 in1011.5 mb 0.00 in0.0 mm 0.00 in0.0 mm 0.03 in0.8 mm
08:24 AM 36.7°F2.6°C 28.2°F-2.1°C 71% 9.0 mph WNW14.5 kmh WNW 9.0 mph14.5 kmh 29.87 in1011.5 mb 0.00 in0.0 mm 0.00 in0.0 mm 0.03 in0.8 mm
08:22 AM 36.8°F2.7°C 28.3°F-2.1°C 71% 3.0 mph NNW4.8 kmh NNW 13.0 mph20.9 kmh 29.87 in1011.5 mb 0.00 in0.0 mm 0.00 in0.0 mm 0.03 in0.8 mm
08:20 AM 36.7°F2.6°C 28.2°F-2.1°C 71% 5.0 mph NNW8.0 kmh NNW 13.0 mph20.9 kmh 29.86 in1011.2 mb 0.00 in0.0 mm 0.00 in0.0 mm 0.03 in0.8 mm
08:18 AM 36.8°F2.7°C 27.9°F-2.3°C 70% 3.0 mph NW4.8 kmh NW 13.0 mph20.9 kmh 29.87 in1011.5 mb 0.00 in0.0 mm 0.00 in0.0 mm 0.03 in0.8 mm
08:16 AM 36.7°F2.6°C 28.2°F-2.1°C 71% 3.0 mph WNW4.8 kmh WNW 13.0 mph20.9 kmh 29.87 in1011.5 mb 0.00 in0.0 mm 0.00 in0.0 mm 0.03 in0.8 mm
08:14 AM 36.7°F2.6°C 27.9°F-2.3°C 70% 5.0 mph NW8.0 kmh NW 13.0 mph20.9 kmh 29.86 in1011.2 mb 0.00 in0.0 mm 0.00 in0.0 mm 0.03 in0.8 mm
08:12 AM 36.7°F2.6°C 28.2°F-2.1°C 71% 10.0 mph NW16.1 kmh NW 13.0 mph20.9 kmh 29.86 in1011.2 mb 0.00 in0.0 mm 0.00 in0.0 mm 0.03 in0.8 mm
08:10 AM 36.8°F2.7°C 28.3°F-2.1°C 71% 4.0 mph NNW6.4 kmh NNW 13.0 mph20.9 kmh 29.86 in1011.2 mb 0.00 in0.0 mm 0.00 in0.0 mm 0.03 in0.8 mm
08:08 AM 36.7°F2.6°C 28.2°F-2.1°C 71% 4.0 mph NW6.4 kmh NW 13.0 mph20.9 kmh 29.86 in1011.2 mb 0.00 in0.0 mm 0.00 in0.0 mm 0.03 in0.8 mm
08:06 AM 36.7°F2.6°C 28.2°F-2.1°C 71% 7.0 mph NW11.3 kmh NW 13.0 mph20.9 kmh 29.86 in1011.2 mb 0.00 in0.0 mm 0.00 in0.0 mm 0.03 in0.8 mm
08:04 AM 36.7°F2.6°C 28.2°F-2.1°C 71% 7.0 mph NW11.3 kmh NW 13.0 mph20.9 kmh 29.86 in1011.2 mb 0.00 in0.0 mm 0.00 in0.0 mm 0.03 in0.8 mm
08:02 AM 36.7°F2.6°C 28.9°F-1.7°C 73% 5.0 mph NW8.0 kmh NW 10.0 mph16.1 kmh 29.86 in1011.2 mb 0.00 in0.0 mm 0.00 in0.0 mm 0.03 in0.8 mm
08:00 AM 36.7°F2.6°C 28.9°F-1.7°C 73% 4.0 mph NW6.4 kmh NW 10.0 mph16.1 kmh 29.86 in1011.2 mb 0.00 in0.0 mm 0.00 in0.0 mm 0.03 in0.8 mm
07:58 AM 36.8°F2.7°C 29.3°F-1.5°C 74% 5.0 mph NW8.0 kmh NW 10.0 mph16.1 kmh 29.86 in1011.2 mb 0.00 in0.0 mm 0.00 in0.0 mm 0.03 in0.8 mm
07:56 AM 36.8°F2.7°C 29.3°F-1.5°C 74% 4.0 mph NW6.4 kmh NW 10.0 mph16.1 kmh 29.86 in1011.2 mb 0.00 in0.0 mm 0.00 in0.0 mm 0.03 in0.8 mm
07:54 AM 36.8°F2.7°C 29.6°F-1.3°C 75% 7.0 mph WNW11.3 kmh WNW 10.0 mph16.1 kmh 29.86 in1011.2 mb 0.00 in0.0 mm 0.00 in0.0 mm 0.03 in0.8 mm
07:52 AM 36.7°F2.6°C 29.5°F-1.4°C 75% 4.0 mph WNW6.4 kmh WNW 10.0 mph16.1 kmh 29.86 in1011.2 mb 0.00 in0.0 mm 0.00 in0.0 mm 0.03 in0.8 mm
07:50 AM 36.7°F2.6°C 29.5°F-1.4°C 75% 4.0 mph NW6.4 kmh NW 12.0 mph19.3 kmh 29.86 in1011.2 mb 0.00 in0.0 mm 0.00 in0.0 mm 0.03 in0.8 mm
07:48 AM 36.8°F2.7°C 30.3°F-0.9°C 77% 4.0 mph NW6.4 kmh NW 12.0 mph19.3 kmh 29.86 in1011.2 mb 0.00 in0.0 mm 0.00 in0.0 mm 0.03 in0.8 mm
07:46 AM 36.8°F2.7°C 30.0°F-1.1°C 76% 7.0 mph NW11.3 kmh NW 12.0 mph19.3 kmh 29.85 in1010.8 mb 0.00 in0.0 mm 0.00 in0.0 mm 0.03 in0.8 mm
07:44 AM 36.7°F2.6°C 29.9°F-1.2°C 76% 3.0 mph WNW4.8 kmh WNW 12.0 mph19.3 kmh 29.85 in1010.8 mb 0.00 in0.0 mm 0.00 in0.0 mm 0.03 in0.8 mm
07:42 AM 36.7°F2.6°C 30.2°F-1.0°C 77% 4.0 mph NW6.4 kmh NW 12.0 mph19.3 kmh 29.85 in1010.8 mb 0.00 in0.0 mm 0.00 in0.0 mm 0.03 in0.8 mm
07:40 AM 36.8°F2.7°C 30.3°F-0.9°C 77% 3.0 mph NW4.8 kmh NW 12.0 mph19.3 kmh 29.85 in1010.8 mb 0.00 in0.0 mm 0.00 in0.0 mm 0.03 in0.8 mm
07:38 AM 36.8°F2.7°C 30.3°F-0.9°C 77% 4.0 mph NW6.4 kmh NW 12.0 mph19.3 kmh 29.85 in1010.8 mb 0.00 in0.0 mm 0.00 in0.0 mm 0.03 in0.8 mm
07:36 AM 36.8°F2.7°C 30.3°F-0.9°C 77% 6.0 mph NW9.7 kmh NW 12.0 mph19.3 kmh 29.85 in1010.8 mb 0.00 in0.0 mm 0.00 in0.0 mm 0.03 in0.8 mm
07:34 AM 36.7°F2.6°C 30.2°F-1.0°C 77% 2.0 mph S3.2 kmh S 12.0 mph19.3 kmh 29.84 in1010.5 mb 0.00 in0.0 mm 0.00 in0.0 mm 0.03 in0.8 mm
07:32 AM 36.7°F2.6°C 30.2°F-1.0°C 77% 4.0 mph NW6.4 kmh NW 12.0 mph19.3 kmh 29.85 in1010.8 mb 0.00 in0.0 mm 0.00 in0.0 mm 0.03 in0.8 mm
07:30 AM 36.7°F2.6°C 30.5°F-0.8°C 78% 6.0 mph NW9.7 kmh NW 9.0 mph14.5 kmh 29.84 in1010.5 mb 0.00 in0.0 mm 0.00 in0.0 mm 0.03 in0.8 mm
07:28 AM 36.8°F2.7°C 30.6°F-0.8°C 78% 3.0 mph NW4.8 kmh NW 10.0 mph16.1 kmh 29.84 in1010.5 mb 0.00 in0.0 mm 0.00 in0.0 mm 0.03 in0.8 mm
07:26 AM 36.8°F2.7°C 30.6°F-0.8°C 78% 2.0 mph NW3.2 kmh NW 10.0 mph16.1 kmh 29.84 in1010.5 mb 0.00 in0.0 mm 0.00 in0.0 mm 0.03 in0.8 mm
07:24 AM 36.9°F2.7°C 30.7°F-0.7°C 78% 2.0 mph NW3.2 kmh NW 10.0 mph16.1 kmh 29.84 in1010.5 mb 0.00 in0.0 mm 0.00 in0.0 mm 0.03 in0.8 mm
07:22 AM 36.9°F2.7°C 30.7°F-0.7°C 78% 2.0 mph NW3.2 kmh NW 10.0 mph16.1 kmh 29.84 in1010.5 mb 0.00 in0.0 mm 0.00 in0.0 mm 0.03 in0.8 mm
07:20 AM 37.0°F2.8°C 30.8°F-0.7°C 78% 3.0 mph WNW4.8 kmh WNW 10.0 mph16.1 kmh 29.84 in1010.5 mb 0.00 in0.0 mm 0.00 in0.0 mm 0.03 in0.8 mm
07:18 AM 37.0°F2.8°C 30.8°F-0.7°C 78% 3.0 mph NW4.8 kmh NW 10.0 mph16.1 kmh 29.84 in1010.5 mb 0.00 in0.0 mm 0.00 in0.0 mm 0.03 in0.8 mm
07:16 AM 37.1°F2.8°C 30.9°F-0.6°C 78% 3.0 mph NW4.8 kmh NW 10.0 mph16.1 kmh 29.84 in1010.5 mb 0.00 in0.0 mm 0.00 in0.0 mm 0.03 in0.8 mm
07:14 AM 37.2°F2.9°C 31.0°F-0.6°C 78% 3.0 mph NW4.8 kmh NW 10.0 mph16.1 kmh 29.83 in1010.2 mb 0.00 in0.0 mm 0.00 in0.0 mm 0.03 in0.8 mm
07:12 AM 37.3°F2.9°C 31.1°F-0.5°C 78% 2.0 mph WNW3.2 kmh WNW 10.0 mph16.1 kmh 29.83 in1010.2 mb 0.00 in0.0 mm 0.00 in0.0 mm 0.03 in0.8 mm
07:10 AM 37.4°F3.0°C 31.2°F-0.4°C 78% 3.0 mph NW4.8 kmh NW 10.0 mph16.1 kmh 29.83 in1010.2 mb 0.00 in0.0 mm 0.00 in0.0 mm 0.03 in0.8 mm
07:08 AM 37.5°F3.1°C 31.0°F-0.6°C 77% 7.0 mph N11.3 kmh N 9.0 mph14.5 kmh 29.82 in1009.8 mb 0.00 in0.0 mm 0.00 in0.0 mm 0.03 in0.8 mm
07:06 AM 37.5°F3.1°C 30.6°F-0.8°C 76% 6.0 mph SSE9.7 kmh SSE 9.0 mph14.5 kmh 29.83 in1010.2 mb 0.00 in0.0 mm 0.00 in0.0 mm 0.03 in0.8 mm
07:04 AM 37.5°F3.1°C 30.6°F-0.8°C 76% 3.0 mph NW4.8 kmh NW 8.0 mph12.9 kmh 29.82 in1009.8 mb 0.00 in0.0 mm 0.00 in0.0 mm 0.03 in0.8 mm
07:02 AM 37.5°F3.1°C 30.6°F-0.8°C 76% 6.0 mph NW9.7 kmh NW 8.0 mph12.9 kmh 29.82 in1009.8 mb 0.00 in0.0 mm 0.00 in0.0 mm 0.03 in0.8 mm
07:00 AM 37.5°F3.1°C 30.6°F-0.8°C 76% 2.0 mph NW3.2 kmh NW 8.0 mph12.9 kmh 29.82 in1009.8 mb 0.00 in0.0 mm 0.00 in0.0 mm 0.03 in0.8 mm
06:58 AM 37.5°F3.1°C 30.6°F-0.8°C 76% 1.0 mph WNW1.6 kmh WNW 8.0 mph12.9 kmh 29.82 in1009.8 mb 0.00 in0.0 mm 0.00 in0.0 mm 0.03 in0.8 mm
06:56 AM 37.5°F3.1°C 30.3°F-0.9°C 75% 6.0 mph W9.7 kmh W 8.0 mph12.9 kmh 29.81 in1009.5 mb 0.00 in0.0 mm 0.00 in0.0 mm 0.03 in0.8 mm
06:54 AM 37.5°F3.1°C 30.6°F-0.8°C 76% 3.0 mph WNW4.8 kmh WNW 8.0 mph12.9 kmh 29.81 in1009.5 mb 0.00 in0.0 mm 0.00 in0.0 mm 0.03 in0.8 mm
06:52 AM 37.5°F3.1°C 30.6°F-0.8°C 76% 4.0 mph W6.4 kmh W 7.0 mph11.3 kmh 29.81 in1009.5 mb 0.00 in0.0 mm 0.00 in0.0 mm 0.03 in0.8 mm
06:50 AM 37.5°F3.1°C 30.3°F-0.9°C 75% 2.0 mph WNW3.2 kmh WNW 7.0 mph11.3 kmh 29.81 in1009.5 mb 0.00 in0.0 mm 0.00 in0.0 mm 0.03 in0.8 mm
06:48 AM 37.5°F3.1°C 30.3°F-0.9°C 75% 5.0 mph NW8.0 kmh NW 7.0 mph11.3 kmh 29.82 in1009.8 mb 0.00 in0.0 mm 0.00 in0.0 mm 0.03 in0.8 mm
06:46 AM 37.5°F3.1°C 30.3°F-0.9°C 75% 1.0 mph W1.6 kmh W 7.0 mph11.3 kmh 29.82 in1009.8 mb 0.00 in0.0 mm 0.00 in0.0 mm 0.03 in0.8 mm
06:44 AM 37.4°F3.0°C 30.5°F-0.8°C 76% 2.0 mph WNW3.2 kmh WNW 8.0 mph12.9 kmh 29.81 in1009.5 mb 0.00 in0.0 mm 0.00 in0.0 mm 0.03 in0.8 mm
06:42 AM 37.4°F3.0°C 30.2°F-1.0°C 75% 2.0 mph WNW3.2 kmh WNW 8.0 mph12.9 kmh 29.81 in1009.5 mb 0.00 in0.0 mm 0.00 in0.0 mm 0.03 in0.8 mm
06:40 AM 37.4°F3.0°C 30.9°F-0.6°C 77% 2.0 mph WNW3.2 kmh WNW 8.0 mph12.9 kmh 29.81 in1009.5 mb 0.00 in0.0 mm 0.00 in0.0 mm 0.03 in0.8 mm
06:38 AM 37.4°F3.0°C 30.9°F-0.6°C 77% 3.0 mph NW4.8 kmh NW 8.0 mph12.9 kmh 29.81 in1009.5 mb 0.00 in0.0 mm 0.00 in0.0 mm 0.03 in0.8 mm
06:36 AM 37.4°F3.0°C 30.5°F-0.8°C 76% 2.0 mph NW3.2 kmh NW 8.0 mph12.9 kmh 29.81 in1009.5 mb 0.00 in0.0 mm 0.00 in0.0 mm 0.03 in0.8 mm
06:34 AM 37.4°F3.0°C 30.5°F-0.8°C 76% 2.0 mph NW3.2 kmh NW 8.0 mph12.9 kmh 29.81 in1009.5 mb 0.00 in0.0 mm 0.00 in0.0 mm 0.03 in0.8 mm
06:32 AM 37.4°F3.0°C 30.5°F-0.8°C 76% 2.0 mph WNW3.2 kmh WNW 8.0 mph12.9 kmh 29.81 in1009.5 mb 0.00 in0.0 mm 0.00 in0.0 mm 0.03 in0.8 mm
06:30 AM 37.4°F3.0°C 30.2°F-1.0°C 75% 2.0 mph NW3.2 kmh NW 8.0 mph12.9 kmh 29.81 in1009.5 mb 0.00 in0.0 mm 0.00 in0.0 mm 0.03 in0.8 mm
06:28 AM 37.3°F2.9°C 30.1°F-1.1°C 75% 2.0 mph W3.2 kmh W 8.0 mph12.9 kmh 29.80 in1009.1 mb 0.00 in0.0 mm 0.00 in0.0 mm 0.03 in0.8 mm
06:26 AM 37.3°F2.9°C 30.1°F-1.1°C 75% 3.0 mph NW4.8 kmh NW 8.0 mph12.9 kmh 29.80 in1009.1 mb 0.00 in0.0 mm 0.00 in0.0 mm 0.03 in0.8 mm
06:24 AM 37.3°F2.9°C 30.8°F-0.7°C 77% 3.0 mph WNW4.8 kmh WNW 7.0 mph11.3 kmh 29.80 in1009.1 mb 0.00 in0.0 mm 0.00 in0.0 mm 0.03 in0.8 mm
06:22 AM 37.2°F2.9°C 30.3°F-0.9°C 76% 2.0 mph NW3.2 kmh NW 7.0 mph11.3 kmh 29.80 in1009.1 mb 0.00 in0.0 mm 0.00 in0.0 mm 0.03 in0.8 mm
06:20 AM 37.2°F2.9°C 30.3°F-0.9°C 76% 2.0 mph NW3.2 kmh NW 7.0 mph11.3 kmh 29.80 in1009.1 mb 0.00 in0.0 mm 0.00 in0.0 mm 0.03 in0.8 mm
06:18 AM 37.1°F2.8°C 30.2°F-1.0°C 76% 3.0 mph NW4.8 kmh NW 7.0 mph11.3 kmh 29.80 in1009.1 mb 0.00 in0.0 mm 0.00 in0.0 mm 0.03 in0.8 mm
06:16 AM 37.0°F2.8°C 30.5°F-0.8°C 77% 2.0 mph NW3.2 kmh NW 7.0 mph11.3 kmh 29.80 in1009.1 mb 0.00 in0.0 mm 0.00 in0.0 mm 0.03 in0.8 mm
06:14 AM 37.0°F2.8°C 30.8°F-0.7°C 78% 4.0 mph WNW6.4 kmh WNW 7.0 mph11.3 kmh 29.80 in1009.1 mb 0.00 in0.0 mm 0.00 in0.0 mm 0.03 in0.8 mm
06:12 AM 37.0°F2.8°C 30.8°F-0.7°C 78% 4.0 mph WNW6.4 kmh WNW 5.0 mph8.0 kmh 29.80 in1009.1 mb 0.00 in0.0 mm 0.00 in0.0 mm 0.03 in0.8 mm
06:10 AM 36.9°F2.7°C 30.7°F-0.7°C 78% 2.0 mph NW3.2 kmh NW 7.0 mph11.3 kmh 29.80 in1009.1 mb 0.00 in0.0 mm 0.00 in0.0 mm 0.03 in0.8 mm
06:08 AM 36.8°F2.7°C 30.6°F-0.8°C 78% 4.0 mph NW6.4 kmh NW 7.0 mph11.3 kmh 29.80 in1009.1 mb 0.00 in0.0 mm 0.00 in0.0 mm 0.03 in0.8 mm
06:06 AM 36.7°F2.6°C 30.5°F-0.8°C 78% 3.0 mph NW4.8 kmh NW 7.0 mph11.3 kmh 29.80 in1009.1 mb 0.00 in0.0 mm 0.00 in0.0 mm 0.03 in0.8 mm
06:04 AM 36.6°F2.6°C 31.0°F-0.6°C 80% 4.0 mph NW6.4 kmh NW 7.0 mph11.3 kmh 29.80 in1009.1 mb 0.00 in0.0 mm 0.00 in0.0 mm 0.03 in0.8 mm
06:02 AM 36.6°F2.6°C 31.3°F-0.4°C 81% 4.0 mph WNW6.4 kmh WNW 7.0 mph11.3 kmh 29.80 in1009.1 mb 0.00 in0.0 mm 0.00 in0.0 mm 0.03 in0.8 mm
06:00 AM 36.5°F2.5°C 30.9°F-0.6°C 80% 2.0 mph 3.2 kmh 9.0 mph14.5 kmh 29.80 in1009.1 mb 0.00 in0.0 mm 0.00 in0.0 mm 0.03 in0.8 mm
05:58 AM 36.4°F2.4°C 31.1°F-0.5°C 81% 7.0 mph NW11.3 kmh NW 9.0 mph14.5 kmh 29.80 in1009.1 mb 0.00 in0.0 mm 0.00 in0.0 mm 0.03 in0.8 mm
05:56 AM 36.3°F2.4°C 31.0°F-0.6°C 81% 4.0 mph N6.4 kmh N 9.0 mph14.5 kmh 29.80 in1009.1 mb 0.00 in0.0 mm 0.00 in0.0 mm 0.03 in0.8 mm
05:54 AM 36.2°F2.3°C 31.2°F-0.4°C 82% 3.0 mph NW4.8 kmh NW 9.0 mph14.5 kmh 29.79 in1008.8 mb 0.00 in0.0 mm 0.00 in0.0 mm 0.03 in0.8 mm
05:52 AM 36.2°F2.3°C 31.5°F-0.3°C 83% 4.0 mph NNW6.4 kmh NNW 9.0 mph14.5 kmh 29.79 in1008.8 mb 0.00 in0.0 mm 0.00 in0.0 mm 0.03 in0.8 mm
05:50 AM 36.1°F2.3°C 31.4°F-0.3°C 83% 4.0 mph NNW6.4 kmh NNW 9.0 mph14.5 kmh 29.79 in1008.8 mb 0.00 in0.0 mm 0.00 in0.0 mm 0.03 in0.8 mm
05:48 AM 36.1°F2.3°C 31.7°F-0.2°C 84% 3.0 mph NW4.8 kmh NW 9.0 mph14.5 kmh 29.79 in1008.8 mb 0.00 in0.0 mm 0.00 in0.0 mm 0.03 in0.8 mm
05:46 AM 36.0°F2.2°C 31.6°F-0.2°C 84% 3.0 mph NW4.8 kmh NW 9.0 mph14.5 kmh 29.79 in1008.8 mb 0.00 in0.0 mm 0.00 in0.0 mm 0.03 in0.8 mm
05:44 AM 35.9°F2.2°C 31.8°F-0.1°C 85% 5.0 mph N8.0 kmh N 9.0 mph14.5 kmh 29.79 in1008.8 mb 0.00 in0.0 mm 0.00 in0.0 mm 0.03 in0.8 mm
05:42 AM 35.9°F2.2°C 32.1°F0.1°C 86% 4.0 mph NW6.4 kmh NW 9.0 mph14.5 kmh 29.79 in1008.8 mb 0.00 in0.0 mm 0.00 in0.0 mm 0.03 in0.8 mm
05:40 AM 35.9°F2.2°C 32.1°F0.1°C 86% 3.0 mph N4.8 kmh N 7.0 mph11.3 kmh 29.79 in1008.8 mb 0.00 in0.0 mm 0.00 in0.0 mm 0.03 in0.8 mm
05:38 AM 35.9°F2.2°C 32.1°F0.1°C 86% 1.0 mph NW1.6 kmh NW 7.0 mph11.3 kmh 29.79 in1008.8 mb 0.00 in0.0 mm 0.00 in0.0 mm 0.03 in0.8 mm
05:36 AM 35.9°F2.2°C 32.1°F0.1°C 86% 5.0 mph NW8.0 kmh NW 7.0 mph11.3 kmh 29.79 in1008.8 mb 0.00 in0.0 mm 0.00 in0.0 mm 0.03 in0.8 mm
05:34 AM 35.9°F2.2°C 32.1°F0.1°C 86% 5.0 mph NE8.0 kmh NE 7.0 mph11.3 kmh 29.79 in1008.8 mb 0.00 in0.0 mm 0.00 in0.0 mm 0.03 in0.8 mm
05:32 AM 35.9°F2.2°C 32.1°F0.1°C 86% 2.0 mph NNW3.2 kmh NNW 5.0 mph8.0 kmh 29.79 in1008.8 mb 0.00 in0.0 mm 0.00 in0.0 mm 0.03 in0.8 mm
05:30 AM 35.9°F2.2°C 32.1°F0.1°C 86% 3.0 mph 4.8 kmh 5.0 mph8.0 kmh 29.79 in1008.8 mb 0.00 in0.0 mm 0.00 in0.0 mm 0.03 in0.8 mm
05:28 AM 35.9°F2.2°C 32.1°F0.1°C 86% 3.0 mph 4.8 kmh 11.0 mph17.7 kmh 29.79 in1008.8 mb 0.00 in0.0 mm 0.00 in0.0 mm 0.03 in0.8 mm
05:26 AM 36.0°F2.2°C 32.2°F0.1°C 86% 4.0 mph N6.4 kmh N 11.0 mph17.7 kmh 29.79 in1008.8 mb 0.00 in0.0 mm 0.00 in0.0 mm 0.03 in0.8 mm
05:24 AM 36.0°F2.2°C 32.2°F0.1°C 86% 3.0 mph N4.8 kmh N 11.0 mph17.7 kmh 29.79 in1008.8 mb 0.00 in0.0 mm 0.00 in0.0 mm 0.03 in0.8 mm
05:22 AM 36.0°F2.2°C 32.2°F0.1°C 86% 5.0 mph N8.0 kmh N 11.0 mph17.7 kmh 29.79 in1008.8 mb 0.00 in0.0 mm 0.00 in0.0 mm 0.03 in0.8 mm
05:20 AM 36.1°F2.3°C 32.3°F0.2°C 86% 2.0 mph N3.2 kmh N 11.0 mph17.7 kmh 29.78 in1008.5 mb 0.00 in0.0 mm 0.00 in0.0 mm 0.03 in0.8 mm
05:18 AM 36.1°F2.3°C 32.3°F0.2°C 86% 4.0 mph N6.4 kmh N 11.0 mph17.7 kmh 29.78 in1008.5 mb 0.00 in0.0 mm 0.00 in0.0 mm 0.03 in0.8 mm
05:16 AM 36.1°F2.3°C 32.3°F0.2°C 86% 2.0 mph NNW3.2 kmh NNW 11.0 mph17.7 kmh 29.78 in1008.5 mb 0.00 in0.0 mm 0.00 in0.0 mm 0.03 in0.8 mm
05:14 AM 36.1°F2.3°C 32.3°F0.2°C 86% 3.0 mph NNW4.8 kmh NNW 11.0 mph17.7 kmh 29.78 in1008.5 mb 0.00 in0.0 mm 0.00 in0.0 mm 0.03 in0.8 mm
05:12 AM 36.2°F2.3°C 32.1°F0.1°C 85% 4.0 mph NNW6.4 kmh NNW 11.0 mph17.7 kmh 29.78 in1008.5 mb 0.00 in0.0 mm 0.00 in0.0 mm 0.03 in0.8 mm
05:10 AM 36.2°F2.3°C 32.1°F0.1°C 85% 3.0 mph NW4.8 kmh NW 11.0 mph17.7 kmh 29.78 in1008.5 mb 0.00 in0.0 mm 0.00 in0.0 mm 0.03 in0.8 mm
05:08 AM 36.3°F2.4°C 32.2°F0.1°C 85% 5.0 mph NW8.0 kmh NW 10.0 mph16.1 kmh 29.78 in1008.5 mb 0.00 in0.0 mm 0.00 in0.0 mm 0.03 in0.8 mm
05:06 AM 36.5°F2.5°C 32.4°F0.2°C 85% 2.0 mph W3.2 kmh W 10.0 mph16.1 kmh 29.77 in1008.1 mb 0.00 in0.0 mm 0.00 in0.0 mm 0.03 in0.8 mm
05:04 AM 36.6°F2.6°C 32.5°F0.3°C 85% 5.0 mph NNW8.0 kmh NNW 10.0 mph16.1 kmh 29.78 in1008.5 mb 0.00 in0.0 mm 0.00 in0.0 mm 0.03 in0.8 mm
05:02 AM 36.8°F2.7°C 32.7°F0.4°C 85% 4.0 mph NNE6.4 kmh NNE 10.0 mph16.1 kmh 29.78 in1008.5 mb 0.00 in0.0 mm 0.00 in0.0 mm 0.02 in0.5 mm
05:00 AM 36.9°F2.7°C 32.5°F0.3°C 84% 3.0 mph NW4.8 kmh NW 10.0 mph16.1 kmh 29.78 in1008.5 mb 0.00 in0.0 mm 0.00 in0.0 mm 0.02 in0.5 mm
04:58 AM 37.1°F2.8°C 32.7°F0.4°C 84% 2.0 mph NW3.2 kmh NW 10.0 mph16.1 kmh 29.77 in1008.1 mb 0.00 in0.0 mm 0.00 in0.0 mm 0.02 in0.5 mm
04:56 AM 37.3°F2.9°C 32.6°F0.3°C 83% 5.0 mph NW8.0 kmh NW 10.0 mph16.1 kmh 29.77 in1008.1 mb 0.00 in0.0 mm 0.00 in0.0 mm 0.02 in0.5 mm
04:54 AM 37.4°F3.0°C 32.7°F0.4°C 83% 6.0 mph NW9.7 kmh NW 10.0 mph16.1 kmh 29.77 in1008.1 mb 0.00 in0.0 mm 0.00 in0.0 mm 0.02 in0.5 mm
04:52 AM 37.6°F3.1°C 32.6°F0.3°C 82% 4.0 mph N6.4 kmh N 10.0 mph16.1 kmh 29.77 in1008.1 mb 0.00 in0.0 mm 0.00 in0.0 mm 0.02 in0.5 mm
04:50 AM 37.8°F3.2°C 32.8°F0.4°C 82% 3.0 mph NNW4.8 kmh NNW 10.0 mph16.1 kmh 29.77 in1008.1 mb 0.00 in0.0 mm 0.00 in0.0 mm 0.02 in0.5 mm
04:48 AM 37.9°F3.3°C 32.6°F0.3°C 81% 3.0 mph 4.8 kmh 8.0 mph12.9 kmh 29.77 in1008.1 mb 0.00 in0.0 mm 0.00 in0.0 mm 0.02 in0.5 mm
04:46 AM 38.0°F3.3°C 32.7°F0.4°C 81% 2.0 mph NNW3.2 kmh NNW 8.0 mph12.9 kmh 29.76 in1007.8 mb 0.00 in0.0 mm 0.00 in0.0 mm 0.02 in0.5 mm
04:44 AM 38.1°F3.4°C 32.5°F0.3°C 80% 3.0 mph NW4.8 kmh NW 8.0 mph12.9 kmh 29.76 in1007.8 mb 0.00 in0.0 mm 0.00 in0.0 mm 0.02 in0.5 mm
04:42 AM 38.1°F3.4°C 32.5°F0.3°C 80% 2.0 mph N3.2 kmh N 8.0 mph12.9 kmh 29.76 in1007.8 mb 0.00 in0.0 mm 0.00 in0.0 mm 0.02 in0.5 mm
04:40 AM 38.1°F3.4°C 32.5°F0.3°C 80% 4.0 mph NNW6.4 kmh NNW 8.0 mph12.9 kmh 29.76 in1007.8 mb 0.00 in0.0 mm 0.00 in0.0 mm 0.02 in0.5 mm
04:38 AM 38.1°F3.4°C 32.5°F0.3°C 80% 6.0 mph NW9.7 kmh NW 8.0 mph12.9 kmh 29.76 in1007.8 mb 0.00 in0.0 mm 0.00 in0.0 mm 0.02 in0.5 mm
04:36 AM 38.1°F3.4°C 32.5°F0.3°C 80% 4.0 mph NW6.4 kmh NW 7.0 mph11.3 kmh 29.75 in1007.5 mb 0.00 in0.0 mm 0.00 in0.0 mm 0.02 in0.5 mm
04:34 AM 38.1°F3.4°C 32.2°F0.1°C 79% 3.0 mph WNW4.8 kmh WNW 7.0 mph11.3 kmh 29.75 in1007.5 mb 0.00 in0.0 mm 0.00 in0.0 mm 0.02 in0.5 mm
04:32 AM 38.0°F3.3°C 32.1°F0.1°C 79% 2.0 mph NW3.2 kmh NW 7.0 mph11.3 kmh 29.75 in1007.5 mb 0.00 in0.0 mm 0.00 in0.0 mm 0.02 in0.5 mm
04:30 AM 38.0°F3.3°C 32.1°F0.1°C 79% 2.0 mph NW3.2 kmh NW 7.0 mph11.3 kmh 29.75 in1007.5 mb 0.00 in0.0 mm 0.00 in0.0 mm 0.02 in0.5 mm
04:28 AM 38.0°F3.3°C 31.8°F-0.1°C 78% 2.0 mph W3.2 kmh W 8.0 mph12.9 kmh 29.75 in1007.5 mb 0.00 in0.0 mm 0.00 in0.0 mm 0.02 in0.5 mm
04:26 AM 38.0°F3.3°C 32.1°F0.1°C 79% 4.0 mph NNW6.4 kmh NNW 8.0 mph12.9 kmh 29.75 in1007.5 mb 0.00 in0.0 mm 0.00 in0.0 mm 0.02 in0.5 mm
04:24 AM 38.0°F3.3°C 32.1°F0.1°C 79% 3.0 mph W4.8 kmh W 8.0 mph12.9 kmh 29.75 in1007.5 mb 0.00 in0.0 mm 0.00 in0.0 mm 0.02 in0.5 mm
04:22 AM 38.0°F3.3°C 32.1°F0.1°C 79% 3.0 mph NW4.8 kmh NW 8.0 mph12.9 kmh 29.75 in1007.5 mb 0.00 in0.0 mm 0.00 in0.0 mm 0.02 in0.5 mm
04:20 AM 38.0°F3.3°C 32.1°F0.1°C 79% 2.0 mph WNW3.2 kmh WNW 8.0 mph12.9 kmh 29.75 in1007.5 mb 0.00 in0.0 mm 0.00 in0.0 mm 0.02 in0.5 mm
04:18 AM 38.0°F3.3°C 32.1°F0.1°C 79% 2.0 mph WNW3.2 kmh WNW 9.0 mph14.5 kmh 29.75 in1007.5 mb 0.00 in0.0 mm 0.00 in0.0 mm 0.02 in0.5 mm
04:16 AM 38.0°F3.3°C 32.1°F0.1°C 79% 3.0 mph NW4.8 kmh NW 9.0 mph14.5 kmh 29.75 in1007.5 mb 0.00 in0.0 mm 0.00 in0.0 mm 0.02 in0.5 mm
04:14 AM 38.0°F3.3°C 32.1°F0.1°C 79% 5.0 mph NW8.0 kmh NW 9.0 mph14.5 kmh 29.75 in1007.5 mb 0.00 in0.0 mm 0.00 in0.0 mm 0.02 in0.5 mm
04:12 AM 38.0°F3.3°C 32.4°F0.2°C 80% 4.0 mph NW6.4 kmh NW 9.0 mph14.5 kmh 29.75 in1007.5 mb 0.00 in0.0 mm 0.00 in0.0 mm 0.02 in0.5 mm
04:10 AM 38.1°F3.4°C 32.5°F0.3°C 80% 5.0 mph NW8.0 kmh NW 9.0 mph14.5 kmh 29.74 in1007.1 mb 0.00 in0.0 mm 0.00 in0.0 mm 0.02 in0.5 mm
04:08 AM 38.1°F3.4°C 32.5°F0.3°C 80% 3.0 mph WNW4.8 kmh WNW 9.0 mph14.5 kmh 29.74 in1007.1 mb 0.00 in0.0 mm 0.00 in0.0 mm 0.02 in0.5 mm
04:06 AM 38.1°F3.4°C 32.5°F0.3°C 80% 2.0 mph NW3.2 kmh NW 9.0 mph14.5 kmh 29.74 in1007.1 mb 0.00 in0.0 mm 0.00 in0.0 mm 0.02 in0.5 mm
04:04 AM 38.1°F3.4°C 32.5°F0.3°C 80% 4.0 mph NW6.4 kmh NW 9.0 mph14.5 kmh 29.74 in1007.1 mb 0.00 in0.0 mm 0.00 in0.0 mm 0.02 in0.5 mm
04:02 AM 38.1°F3.4°C 32.5°F0.3°C 80% 2.0 mph NW3.2 kmh NW 9.0 mph14.5 kmh 29.74 in1007.1 mb 0.00 in0.0 mm 0.00 in0.0 mm 0.02 in0.5 mm
04:00 AM 38.1°F3.4°C 32.5°F0.3°C 80% 5.0 mph NW8.0 kmh NW 9.0 mph14.5 kmh 29.74 in1007.1 mb 0.00 in0.0 mm 0.00 in0.0 mm 0.02 in0.5 mm
03:58 AM 38.2°F3.4°C 32.6°F0.3°C 80% 2.0 mph NW3.2 kmh NW 9.0 mph14.5 kmh 29.74 in1007.1 mb 0.00 in0.0 mm 0.00 in0.0 mm 0.02 in0.5 mm
03:56 AM 38.2°F3.4°C 32.6°F0.3°C 80% 4.0 mph NW6.4 kmh NW 13.0 mph20.9 kmh 29.74 in1007.1 mb 0.00 in0.0 mm 0.00 in0.0 mm 0.02 in0.5 mm
03:54 AM 38.2°F3.4°C 32.6°F0.3°C 80% 5.0 mph WNW8.0 kmh WNW 13.0 mph20.9 kmh 29.74 in1007.1 mb 0.00 in0.0 mm 0.00 in0.0 mm 0.02 in0.5 mm
03:52 AM 38.2°F3.4°C 32.6°F0.3°C 80% 5.0 mph NW8.0 kmh NW 13.0 mph20.9 kmh 29.73 in1006.8 mb 0.00 in0.0 mm 0.00 in0.0 mm 0.02 in0.5 mm
03:50 AM 38.2°F3.4°C 32.6°F0.3°C 80% 3.0 mph NNW4.8 kmh NNW 13.0 mph20.9 kmh 29.73 in1006.8 mb 0.00 in0.0 mm 0.00 in0.0 mm 0.02 in0.5 mm
03:48 AM 38.1°F3.4°C 32.5°F0.3°C 80% 5.0 mph NW8.0 kmh NW 13.0 mph20.9 kmh 29.73 in1006.8 mb 0.00 in0.0 mm 0.00 in0.0 mm 0.02 in0.5 mm
03:46 AM 38.1°F3.4°C 32.5°F0.3°C 80% 5.0 mph NW8.0 kmh NW 13.0 mph20.9 kmh 29.73 in1006.8 mb 0.00 in0.0 mm 0.00 in0.0 mm 0.02 in0.5 mm
03:44 AM 38.1°F3.4°C 32.8°F0.4°C 81% 7.0 mph N11.3 kmh N 13.0 mph20.9 kmh 29.73 in1006.8 mb 0.00 in0.0 mm 0.00 in0.0 mm 0.02 in0.5 mm
03:42 AM 38.1°F3.4°C 32.8°F0.4°C 81% 3.0 mph NW4.8 kmh NW 13.0 mph20.9 kmh 29.73 in1006.8 mb 0.00 in0.0 mm 0.00 in0.0 mm 0.02 in0.5 mm
03:40 AM 38.1°F3.4°C 32.8°F0.4°C 81% 3.0 mph WNW4.8 kmh WNW 13.0 mph20.9 kmh 29.73 in1006.8 mb 0.00 in0.0 mm 0.00 in0.0 mm 0.02 in0.5 mm
03:38 AM 38.1°F3.4°C 32.8°F0.4°C 81% 5.0 mph N8.0 kmh N 13.0 mph20.9 kmh 29.73 in1006.8 mb 0.00 in0.0 mm 0.00 in0.0 mm 0.02 in0.5 mm
03:36 AM 38.1°F3.4°C 32.8°F0.4°C 81% 4.0 mph NW6.4 kmh NW 11.0 mph17.7 kmh 29.73 in1006.8 mb 0.00 in0.0 mm 0.00 in0.0 mm 0.02 in0.5 mm
03:34 AM 38.1°F3.4°C 33.1°F0.6°C 82% 3.0 mph NW4.8 kmh NW 11.0 mph17.7 kmh 29.73 in1006.8 mb 0.00 in0.0 mm 0.00 in0.0 mm 0.02 in0.5 mm
03:32 AM 38.1°F3.4°C 33.1°F0.6°C 82% 3.0 mph W4.8 kmh W 11.0 mph17.7 kmh 29.73 in1006.8 mb 0.00 in0.0 mm 0.00 in0.0 mm 0.02 in0.5 mm
03:30 AM 38.1°F3.4°C 33.1°F0.6°C 82% 3.0 mph NNW4.8 kmh NNW 11.0 mph17.7 kmh 29.73 in1006.8 mb 0.00 in0.0 mm 0.00 in0.0 mm 0.02 in0.5 mm
03:28 AM 38.1°F3.4°C 33.1°F0.6°C 82% 5.0 mph NNW8.0 kmh NNW 11.0 mph17.7 kmh 29.73 in1006.8 mb 0.00 in0.0 mm 0.00 in0.0 mm 0.02 in0.5 mm
03:26 AM 38.1°F3.4°C 33.1°F0.6°C 82% 9.0 mph NNW14.5 kmh NNW 11.0 mph17.7 kmh 29.73 in1006.8 mb 0.00 in0.0 mm 0.00 in0.0 mm 0.02 in0.5 mm
03:24 AM 38.0°F3.3°C 33.3°F0.7°C 83% 10.0 mph WNW16.1 kmh WNW 10.0 mph16.1 kmh 29.73 in1006.8 mb 0.00 in0.0 mm 0.00 in0.0 mm 0.02 in0.5 mm
03:22 AM 38.0°F3.3°C 33.3°F0.7°C 83% 5.0 mph NW8.0 kmh NW 10.0 mph16.1 kmh 29.72 in1006.4 mb 0.00 in0.0 mm 0.00 in0.0 mm 0.02 in0.5 mm
03:20 AM 38.0°F3.3°C 33.3°F0.7°C 83% 4.0 mph NW6.4 kmh NW 10.0 mph16.1 kmh 29.72 in1006.4 mb 0.00 in0.0 mm 0.00 in0.0 mm 0.02 in0.5 mm
03:18 AM 37.9°F3.3°C 33.5°F0.8°C 84% 6.0 mph NNW9.7 kmh NNW 10.0 mph16.1 kmh 29.72 in1006.4 mb 0.00 in0.0 mm 0.00 in0.0 mm 0.02 in0.5 mm
03:16 AM 37.9°F3.3°C 33.5°F0.8°C 84% 6.0 mph W9.7 kmh W 10.0 mph16.1 kmh 29.71 in1006.1 mb 0.00 in0.0 mm 0.00 in0.0 mm 0.02 in0.5 mm
03:14 AM 37.9°F3.3°C 33.5°F0.8°C 84% 2.0 mph W3.2 kmh W 11.0 mph17.7 kmh 29.71 in1006.1 mb 0.00 in0.0 mm 0.00 in0.0 mm 0.02 in0.5 mm
03:12 AM 37.8°F3.2°C 33.7°F0.9°C 85% 4.0 mph NNE6.4 kmh NNE 11.0 mph17.7 kmh 29.71 in1006.1 mb 0.00 in0.0 mm 0.00 in0.0 mm 0.02 in0.5 mm
03:10 AM 37.9°F3.3°C 33.8°F1.0°C 85% 3.0 mph NW4.8 kmh NW 11.0 mph17.7 kmh 29.71 in1006.1 mb 0.00 in0.0 mm 0.00 in0.0 mm 0.02 in0.5 mm
03:08 AM 37.9°F3.3°C 34.1°F1.2°C 86% 3.0 mph NW4.8 kmh NW 11.0 mph17.7 kmh 29.71 in1006.1 mb 0.00 in0.0 mm 0.00 in0.0 mm 0.02 in0.5 mm
03:06 AM 37.9°F3.3°C 33.8°F1.0°C 85% 4.0 mph NW6.4 kmh NW 11.0 mph17.7 kmh 29.71 in1006.1 mb 0.00 in0.0 mm 0.00 in0.0 mm 0.02 in0.5 mm
03:04 AM 37.9°F3.3°C 33.8°F1.0°C 85% 4.0 mph NW6.4 kmh NW 11.0 mph17.7 kmh 29.70 in1005.8 mb 0.00 in0.0 mm 0.00 in0.0 mm 0.02 in0.5 mm
03:02 AM 37.9°F3.3°C 34.1°F1.2°C 86% 8.0 mph NW12.9 kmh NW 11.0 mph17.7 kmh 29.70 in1005.8 mb 0.00 in0.0 mm 0.00 in0.0 mm 0.02 in0.5 mm
03:00 AM 38.0°F3.3°C 34.2°F1.2°C 86% 5.0 mph N8.0 kmh N 11.0 mph17.7 kmh 29.70 in1005.8 mb 0.00 in0.0 mm 0.00 in0.0 mm 0.02 in0.5 mm
02:58 AM 38.0°F3.3°C 34.2°F1.2°C 86% 4.0 mph NW6.4 kmh NW 11.0 mph17.7 kmh 29.70 in1005.8 mb 0.00 in0.0 mm 0.00 in0.0 mm 0.02 in0.5 mm
02:56 AM 38.0°F3.3°C 34.2°F1.2°C 86% 5.0 mph NW8.0 kmh NW 11.0 mph17.7 kmh 29.70 in1005.8 mb 0.00 in0.0 mm 0.00 in0.0 mm 0.02 in0.5 mm
02:54 AM 38.0°F3.3°C 34.2°F1.2°C 86% 2.0 mph NW3.2 kmh NW 11.0 mph17.7 kmh 29.69 in1005.4 mb 0.00 in0.0 mm 0.00 in0.0 mm 0.02 in0.5 mm
02:52 AM 38.0°F3.3°C 34.2°F1.2°C 86% 3.0 mph NW4.8 kmh NW 11.0 mph17.7 kmh 29.69 in1005.4 mb 0.00 in0.0 mm 0.00 in0.0 mm 0.02 in0.5 mm
02:50 AM 38.0°F3.3°C 33.9°F1.1°C 85% 3.0 mph NW4.8 kmh NW 11.0 mph17.7 kmh 29.69 in1005.4 mb 0.00 in0.0 mm 0.00 in0.0 mm 0.02 in0.5 mm
02:48 AM 37.9°F3.3°C 33.8°F1.0°C 85% 2.0 mph NW3.2 kmh NW 11.0 mph17.7 kmh 29.69 in1005.4 mb 0.00 in0.0 mm 0.00 in0.0 mm 0.02 in0.5 mm
02:46 AM 37.9°F3.3°C 33.8°F1.0°C 85% 4.0 mph W6.4 kmh W 11.0 mph17.7 kmh 29.69 in1005.4 mb 0.00 in0.0 mm 0.00 in0.0 mm 0.02 in0.5 mm
02:44 AM 37.9°F3.3°C 33.8°F1.0°C 85% 3.0 mph WNW4.8 kmh WNW 11.0 mph17.7 kmh 29.69 in1005.4 mb 0.00 in0.0 mm 0.00 in0.0 mm 0.02 in0.5 mm
02:42 AM 38.0°F3.3°C 33.9°F1.1°C 85% 4.0 mph NNW6.4 kmh NNW 11.0 mph17.7 kmh 29.69 in1005.4 mb 0.00 in0.0 mm 0.00 in0.0 mm 0.02 in0.5 mm
02:40 AM 37.9°F3.3°C 33.8°F1.0°C 85% 5.0 mph NW8.0 kmh NW 11.0 mph17.7 kmh 29.68 in1005.1 mb 0.00 in0.0 mm 0.00 in0.0 mm 0.02 in0.5 mm
02:38 AM 37.9°F3.3°C 33.8°F1.0°C 85% 8.0 mph NW12.9 kmh NW 11.0 mph17.7 kmh 29.68 in1005.1 mb 0.00 in0.0 mm 0.00 in0.0 mm 0.02 in0.5 mm
02:36 AM 38.0°F3.3°C 33.9°F1.1°C 85% 5.0 mph NW8.0 kmh NW 10.0 mph16.1 kmh 29.68 in1005.1 mb 0.00 in0.0 mm 0.00 in0.0 mm 0.02 in0.5 mm
02:34 AM 37.9°F3.3°C 33.8°F1.0°C 85% 3.0 mph W4.8 kmh W 10.0 mph16.1 kmh 29.68 in1005.1 mb 0.00 in0.0 mm 0.00 in0.0 mm 0.02 in0.5 mm
02:32 AM 37.9°F3.3°C 33.8°F1.0°C 85% 5.0 mph NW8.0 kmh NW 10.0 mph16.1 kmh 29.67 in1004.7 mb 0.00 in0.0 mm 0.00 in0.0 mm 0.02 in0.5 mm
02:30 AM 37.9°F3.3°C 33.8°F1.0°C 85% 7.0 mph NW11.3 kmh NW 10.0 mph16.1 kmh 29.67 in1004.7 mb 0.00 in0.0 mm 0.00 in0.0 mm 0.02 in0.5 mm
02:28 AM 37.9°F3.3°C 33.8°F1.0°C 85% 4.0 mph WNW6.4 kmh WNW 10.0 mph16.1 kmh 29.67 in1004.7 mb 0.00 in0.0 mm 0.00 in0.0 mm 0.02 in0.5 mm
02:26 AM 37.8°F3.2°C 34.0°F1.1°C 86% 8.0 mph NW12.9 kmh NW 10.0 mph16.1 kmh 29.67 in1004.7 mb 0.00 in0.0 mm 0.00 in0.0 mm 0.02 in0.5 mm
02:24 AM 37.8°F3.2°C 34.0°F1.1°C 86% 1.0 mph N1.6 kmh N 10.0 mph16.1 kmh 29.67 in1004.7 mb 0.00 in0.0 mm 0.00 in0.0 mm 0.02 in0.5 mm
02:22 AM 37.7°F3.2°C 33.6°F0.9°C 85% 3.0 mph NW4.8 kmh NW 10.0 mph16.1 kmh 29.66 in1004.4 mb 0.00 in0.0 mm 0.00 in0.0 mm 0.02 in0.5 mm
02:20 AM 37.7°F3.2°C 33.6°F0.9°C 85% 3.0 mph NW4.8 kmh NW 13.0 mph20.9 kmh 29.66 in1004.4 mb 0.00 in0.0 mm 0.00 in0.0 mm 0.02 in0.5 mm
02:18 AM 37.7°F3.2°C 33.6°F0.9°C 85% 5.0 mph NW8.0 kmh NW 13.0 mph20.9 kmh 29.66 in1004.4 mb 0.00 in0.0 mm 0.00 in0.0 mm 0.02 in0.5 mm
02:16 AM 37.7°F3.2°C 33.9°F1.1°C 86% 8.0 mph WNW12.9 kmh WNW 13.0 mph20.9 kmh 29.66 in1004.4 mb 0.00 in0.0 mm 0.00 in0.0 mm 0.02 in0.5 mm
02:14 AM 37.6°F3.1°C 33.8°F1.0°C 86% 8.0 mph WNW12.9 kmh WNW 13.0 mph20.9 kmh 29.66 in1004.4 mb 0.00 in0.0 mm 0.00 in0.0 mm 0.02 in0.5 mm
02:12 AM 37.5°F3.1°C 33.7°F0.9°C 86% 5.0 mph NW8.0 kmh NW 13.0 mph20.9 kmh 29.65 in1004.1 mb 0.00 in0.0 mm 0.00 in0.0 mm 0.02 in0.5 mm
02:10 AM 37.5°F3.1°C 33.7°F0.9°C 86% 3.0 mph WNW4.8 kmh WNW 13.0 mph20.9 kmh 29.65 in1004.1 mb 0.00 in0.0 mm 0.00 in0.0 mm 0.02 in0.5 mm
02:08 AM 37.4°F3.0°C 33.9°F1.1°C 87% 6.0 mph NW9.7 kmh NW 13.0 mph20.9 kmh 29.65 in1004.1 mb 0.00 in0.0 mm 0.00 in0.0 mm 0.02 in0.5 mm
02:06 AM 37.3°F2.9°C 33.8°F1.0°C 87% 6.0 mph N9.7 kmh N 13.0 mph20.9 kmh 29.65 in1004.1 mb 0.00 in0.0 mm 0.00 in0.0 mm 0.02 in0.5 mm
02:04 AM 37.2°F2.9°C 34.0°F1.1°C 88% 4.0 mph NW6.4 kmh NW 13.0 mph20.9 kmh 29.65 in1004.1 mb 0.00 in0.0 mm 0.00 in0.0 mm 0.02 in0.5 mm
02:02 AM 37.1°F2.8°C 33.9°F1.1°C 88% 6.0 mph NW9.7 kmh NW 13.0 mph20.9 kmh 29.65 in1004.1 mb 0.00 in0.0 mm 0.00 in0.0 mm 0.02 in0.5 mm
02:00 AM 37.0°F2.8°C 33.8°F1.0°C 88% 6.0 mph NW9.7 kmh NW 12.0 mph19.3 kmh 29.64 in1003.7 mb 0.00 in0.0 mm 0.00 in0.0 mm 0.02 in0.5 mm
01:58 AM 37.0°F2.8°C 33.8°F1.0°C 88% 7.0 mph WNW11.3 kmh WNW 12.0 mph19.3 kmh 29.65 in1004.1 mb 0.00 in0.0 mm 0.00 in0.0 mm 0.02 in0.5 mm
01:56 AM 37.0°F2.8°C 33.8°F1.0°C 88% 3.0 mph WNW4.8 kmh WNW 12.0 mph19.3 kmh 29.64 in1003.7 mb 0.00 in0.0 mm 0.00 in0.0 mm 0.02 in0.5 mm
01:54 AM 36.9°F2.7°C 33.7°F0.9°C 88% 4.0 mph NW6.4 kmh NW 12.0 mph19.3 kmh 29.64 in1003.7 mb 0.00 in0.0 mm 0.00 in0.0 mm 0.02 in0.5 mm
01:52 AM 36.8°F2.7°C 33.6°F0.9°C 88% 6.0 mph NW9.7 kmh NW 12.0 mph19.3 kmh 29.64 in1003.7 mb 0.00 in0.0 mm 0.00 in0.0 mm 0.02 in0.5 mm
01:50 AM 36.8°F2.7°C 33.9°F1.1°C 89% 4.0 mph NNW6.4 kmh NNW 12.0 mph19.3 kmh 29.64 in1003.7 mb 0.00 in0.0 mm 0.00 in0.0 mm 0.02 in0.5 mm
01:48 AM 36.7°F2.6°C 33.8°F1.0°C 89% 5.0 mph NW8.0 kmh NW 12.0 mph19.3 kmh 29.63 in1003.4 mb 0.00 in0.0 mm 0.00 in0.0 mm 0.02 in0.5 mm
01:46 AM 36.6°F2.6°C 33.7°F0.9°C 89% 6.0 mph NW9.7 kmh NW 12.0 mph19.3 kmh 29.63 in1003.4 mb 0.00 in0.0 mm 0.00 in0.0 mm 0.02 in0.5 mm
01:44 AM 36.5°F2.5°C 33.6°F0.9°C 89% 7.0 mph NW11.3 kmh NW 11.0 mph17.7 kmh 29.63 in1003.4 mb 0.00 in0.0 mm 0.00 in0.0 mm 0.02 in0.5 mm
01:42 AM 36.5°F2.5°C 33.6°F0.9°C 89% 3.0 mph NNW4.8 kmh NNW 11.0 mph17.7 kmh 29.63 in1003.4 mb 0.00 in0.0 mm 0.00 in0.0 mm 0.02 in0.5 mm
01:40 AM 36.4°F2.4°C 33.5°F0.8°C 89% 5.0 mph N8.0 kmh N 10.0 mph16.1 kmh 29.63 in1003.4 mb 0.00 in0.0 mm 0.00 in0.0 mm 0.02 in0.5 mm
01:38 AM 36.4°F2.4°C 33.5°F0.8°C 89% 6.0 mph NW9.7 kmh NW 10.0 mph16.1 kmh 29.62 in1003.0 mb 0.00 in0.0 mm 0.00 in0.0 mm 0.02 in0.5 mm
01:36 AM 36.4°F2.4°C 33.5°F0.8°C 89% 4.0 mph NW6.4 kmh NW 10.0 mph16.1 kmh 29.62 in1003.0 mb 0.00 in0.0 mm 0.00 in0.0 mm 0.02 in0.5 mm
01:34 AM 36.3°F2.4°C 33.4°F0.8°C 89% 5.0 mph NW8.0 kmh NW 10.0 mph16.1 kmh 29.62 in1003.0 mb 0.00 in0.0 mm 0.00 in0.0 mm 0.02 in0.5 mm
01:32 AM 36.3°F2.4°C 33.4°F0.8°C 89% 5.0 mph NNW8.0 kmh NNW 10.0 mph16.1 kmh 29.62 in1003.0 mb 0.00 in0.0 mm 0.00 in0.0 mm 0.02 in0.5 mm
01:30 AM 36.3°F2.4°C 33.4°F0.8°C 89% 4.0 mph WNW6.4 kmh WNW 10.0 mph16.1 kmh 29.62 in1003.0 mb 0.00 in0.0 mm 0.00 in0.0 mm 0.02 in0.5 mm
01:28 AM 36.2°F2.3°C 33.3°F0.7°C 89% 7.0 mph W11.3 kmh W 9.0 mph14.5 kmh 29.61 in1002.7 mb 0.00 in0.0 mm 0.00 in0.0 mm 0.02 in0.5 mm
01:26 AM 36.2°F2.3°C 33.3°F0.7°C 89% 5.0 mph NW8.0 kmh NW 8.0 mph12.9 kmh 29.61 in1002.7 mb 0.00 in0.0 mm 0.00 in0.0 mm 0.02 in0.5 mm
01:24 AM 36.2°F2.3°C 33.3°F0.7°C 89% 3.0 mph NW4.8 kmh NW 10.0 mph16.1 kmh 29.61 in1002.7 mb 0.00 in0.0 mm 0.00 in0.0 mm 0.02 in0.5 mm
01:22 AM 36.1°F2.3°C 33.2°F0.7°C 89% 4.0 mph WNW6.4 kmh WNW 10.0 mph16.1 kmh 29.61 in1002.7 mb 0.00 in0.0 mm 0.00 in0.0 mm 0.02 in0.5 mm
01:20 AM 36.1°F2.3°C 33.2°F0.7°C 89% 5.0 mph NW8.0 kmh NW 10.0 mph16.1 kmh 29.61 in1002.7 mb 0.00 in0.0 mm 0.00 in0.0 mm 0.02 in0.5 mm
01:18 AM 36.1°F2.3°C 33.2°F0.7°C 89% 2.0 mph WNW3.2 kmh WNW 10.0 mph16.1 kmh 29.60 in1002.4 mb 0.00 in0.0 mm 0.00 in0.0 mm 0.02 in0.5 mm
01:16 AM 36.0°F2.2°C 33.1°F0.6°C 89% 4.0 mph W6.4 kmh W 10.0 mph16.1 kmh 29.60 in1002.4 mb 0.00 in0.0 mm 0.00 in0.0 mm 0.02 in0.5 mm
01:14 AM 36.0°F2.2°C 33.1°F0.6°C 89% 4.0 mph NNW6.4 kmh NNW 10.0 mph16.1 kmh 29.60 in1002.4 mb 0.00 in0.0 mm 0.00 in0.0 mm 0.02 in0.5 mm
01:12 AM 36.0°F2.2°C 33.1°F0.6°C 89% 6.0 mph WNW9.7 kmh WNW 10.0 mph16.1 kmh 29.59 in1002.0 mb 0.00 in0.0 mm 0.00 in0.0 mm 0.02 in0.5 mm
01:10 AM 36.0°F2.2°C 33.1°F0.6°C 89% 2.0 mph WNW3.2 kmh WNW 10.0 mph16.1 kmh 29.59 in1002.0 mb 0.00 in0.0 mm 0.00 in0.0 mm 0.02 in0.5 mm
01:08 AM 35.9°F2.2°C 33.0°F0.6°C 89% 8.0 mph NW12.9 kmh NW 10.0 mph16.1 kmh 29.59 in1002.0 mb 0.00 in0.0 mm 0.00 in0.0 mm 0.02 in0.5 mm
01:06 AM 35.9°F2.2°C 33.0°F0.6°C 89% 5.0 mph NW8.0 kmh NW 10.0 mph16.1 kmh 29.59 in1002.0 mb 0.00 in0.0 mm 0.00 in0.0 mm 0.02 in0.5 mm
01:04 AM 35.9°F2.2°C 33.0°F0.6°C 89% 7.0 mph NW11.3 kmh NW 10.0 mph16.1 kmh 29.59 in1002.0 mb 0.00 in0.0 mm 0.00 in0.0 mm 0.02 in0.5 mm
01:02 AM 35.9°F2.2°C 33.0°F0.6°C 89% 6.0 mph NW9.7 kmh NW 10.0 mph16.1 kmh 29.58 in1001.7 mb 0.00 in0.0 mm 0.00 in0.0 mm 0.02 in0.5 mm
01:00 AM 35.8°F2.1°C 32.6°F0.3°C 88% 3.0 mph N4.8 kmh N 10.0 mph16.1 kmh 29.58 in1001.7 mb 0.00 in0.0 mm 0.00 in0.0 mm 0.04 in1.0 mm
12:58 AM 35.8°F2.1°C 32.6°F0.3°C 88% 5.0 mph NW8.0 kmh NW 10.0 mph16.1 kmh 29.58 in1001.7 mb 0.00 in0.0 mm 0.00 in0.0 mm 0.04 in1.0 mm
12:56 AM 35.8°F2.1°C 32.6°F0.3°C 88% 3.0 mph NW4.8 kmh NW 10.0 mph16.1 kmh 29.58 in1001.7 mb 0.00 in0.0 mm 0.00 in0.0 mm 0.04 in1.0 mm
12:54 AM 35.8°F2.1°C 32.6°F0.3°C 88% 5.0 mph NNW8.0 kmh NNW 11.0 mph17.7 kmh 29.58 in1001.7 mb 0.00 in0.0 mm 0.00 in0.0 mm 0.04 in1.0 mm
12:52 AM 35.7°F2.1°C 32.8°F0.4°C 89% 6.0 mph NW9.7 kmh NW 11.0 mph17.7 kmh 29.57 in1001.4 mb 0.00 in0.0 mm 0.00 in0.0 mm 0.04 in1.0 mm
12:50 AM 35.7°F2.1°C 32.5°F0.3°C 88% 5.0 mph NW8.0 kmh NW 11.0 mph17.7 kmh 29.57 in1001.4 mb 0.00 in0.0 mm 0.00 in0.0 mm 0.04 in1.0 mm
12:48 AM 35.7°F2.1°C 32.8°F0.4°C 89% 4.0 mph NW6.4 kmh NW 11.0 mph17.7 kmh 29.57 in1001.4 mb 0.00 in0.0 mm 0.00 in0.0 mm 0.04 in1.0 mm
12:46 AM 35.7°F2.1°C 32.5°F0.3°C 88% 7.0 mph NW11.3 kmh NW 11.0 mph17.7 kmh 29.57 in1001.4 mb 0.00 in0.0 mm 0.00 in0.0 mm 0.04 in1.0 mm
12:44 AM 35.7°F2.1°C 32.5°F0.3°C 88% 5.0 mph NW8.0 kmh NW 11.0 mph17.7 kmh 29.56 in1001.0 mb 0.00 in0.0 mm 0.00 in0.0 mm 0.04 in1.0 mm
12:42 AM 35.7°F2.1°C 32.5°F0.3°C 88% 7.0 mph NW11.3 kmh NW 11.0 mph17.7 kmh 29.56 in1001.0 mb 0.00 in0.0 mm 0.00 in0.0 mm 0.04 in1.0 mm
12:40 AM 35.7°F2.1°C 32.5°F0.3°C 88% 9.0 mph NW14.5 kmh NW 11.0 mph17.7 kmh 29.56 in1001.0 mb 0.00 in0.0 mm 0.00 in0.0 mm 0.04 in1.0 mm
12:38 AM 35.7°F2.1°C 32.5°F0.3°C 88% 4.0 mph NW6.4 kmh NW 11.0 mph17.7 kmh 29.56 in1001.0 mb 0.00 in0.0 mm 0.00 in0.0 mm 0.04 in1.0 mm
12:36 AM 35.7°F2.1°C 32.5°F0.3°C 88% 7.0 mph WNW11.3 kmh WNW 11.0 mph17.7 kmh 29.56 in1001.0 mb 0.00 in0.0 mm 0.00 in0.0 mm 0.04 in1.0 mm
12:34 AM 35.7°F2.1°C 32.5°F0.3°C 88% 3.0 mph NW4.8 kmh NW 16.0 mph25.7 kmh 29.56 in1001.0 mb 0.00 in0.0 mm 0.00 in0.0 mm 0.04 in1.0 mm
12:32 AM 35.7°F2.1°C 32.5°F0.3°C 88% 3.0 mph NW4.8 kmh NW 16.0 mph25.7 kmh 29.55 in1000.7 mb 0.00 in0.0 mm 0.00 in0.0 mm 0.04 in1.0 mm
12:30 AM 35.7°F2.1°C 32.5°F0.3°C 88% 2.0 mph N3.2 kmh N 16.0 mph25.7 kmh 29.55 in1000.7 mb 0.00 in0.0 mm 0.00 in0.0 mm 0.04 in1.0 mm
12:28 AM 35.8°F2.1°C 32.3°F0.2°C 87% 4.0 mph WNW6.4 kmh WNW 16.0 mph25.7 kmh 29.55 in1000.7 mb 0.00 in0.0 mm 0.00 in0.0 mm 0.04 in1.0 mm
12:26 AM 35.9°F2.2°C 32.4°F0.2°C 87% 9.0 mph NW14.5 kmh NW 16.0 mph25.7 kmh 29.55 in1000.7 mb 0.00 in0.0 mm 0.00 in0.0 mm 0.04 in1.0 mm
12:24 AM 35.9°F2.2°C 32.4°F0.2°C 87% 4.0 mph WNW6.4 kmh WNW 16.0 mph25.7 kmh 29.55 in1000.7 mb 0.00 in0.0 mm 0.00 in0.0 mm 0.04 in1.0 mm
12:22 AM 36.0°F2.2°C 32.5°F0.3°C 87% 7.0 mph NW11.3 kmh NW 16.0 mph25.7 kmh 29.54 in1000.3 mb 0.00 in0.0 mm 0.00 in0.0 mm 0.04 in1.0 mm
12:20 AM 36.0°F2.2°C 32.5°F0.3°C 87% 5.0 mph NW8.0 kmh NW 16.0 mph25.7 kmh 29.54 in1000.3 mb 0.04 in1.0 mm 0.00 in0.0 mm 0.04 in1.0 mm
12:18 AM 36.1°F2.3°C 32.6°F0.3°C 87% 5.0 mph NW8.0 kmh NW 16.0 mph25.7 kmh 29.54 in1000.3 mb 0.04 in1.0 mm 0.00 in0.0 mm 0.04 in1.0 mm
12:16 AM 36.1°F2.3°C 32.6°F0.3°C 87% 14.0 mph N22.5 kmh N 16.0 mph25.7 kmh 29.53 in1000.0 mb 0.04 in1.0 mm 0.00 in0.0 mm 0.04 in1.0 mm
12:14 AM 36.2°F2.3°C 33.0°F0.6°C 88% 8.0 mph WNW12.9 kmh WNW 13.0 mph20.9 kmh 29.54 in1000.3 mb 0.04 in1.0 mm 0.00 in0.0 mm 0.04 in1.0 mm
12:12 AM 36.2°F2.3°C 32.7°F0.4°C 87% 8.0 mph NW12.9 kmh NW 13.0 mph20.9 kmh 29.53 in1000.0 mb 0.04 in1.0 mm 0.00 in0.0 mm 0.04 in1.0 mm
12:10 AM 36.2°F2.3°C 32.7°F0.4°C 87% 3.0 mph WNW4.8 kmh WNW 13.0 mph20.9 kmh 29.52 in999.7 mb 0.04 in1.0 mm 0.00 in0.0 mm 0.04 in1.0 mm
12:08 AM 36.3°F2.4°C 32.8°F0.4°C 87% 9.0 mph NW14.5 kmh NW 13.0 mph20.9 kmh 29.52 in999.7 mb 0.04 in1.0 mm 0.00 in0.0 mm 0.04 in1.0 mm
12:06 AM 36.4°F2.4°C 32.9°F0.5°C 87% 6.0 mph NW9.7 kmh NW 17.0 mph27.4 kmh 29.52 in999.7 mb 0.04 in1.0 mm 0.00 in0.0 mm 0.04 in1.0 mm
12:04 AM 36.5°F2.5°C 33.0°F0.6°C 87% 10.0 mph NW16.1 kmh NW 17.0 mph27.4 kmh 29.51 in999.3 mb 0.04 in1.0 mm 1.20 in30.5 mm 0.04 in1.0 mm
12:02 AM 36.6°F2.6°C 33.1°F0.6°C 87% 8.0 mph NNE12.9 kmh NNE 17.0 mph27.4 kmh 29.51 in999.3 mb 0.00 in0.0 mm 0.00 in0.0 mm 0.00 in0.0 mm
12:00 AM 36.8°F2.7°C 33.3°F0.7°C 87% 5.0 mph WNW8.0 kmh WNW 17.0 mph27.4 kmh 29.50 in999.0 mb 0.00 in0.0 mm 0.00 in0.0 mm 0.00 in0.0 mm